<?xml version="1.0" encoding="UTF-8" standalone="no" ?>
<gpx xmlns="http://www.topografix.com/GPX/1/1" xmlns:xsi="http://www.w3.org/2001/XMLSchema-instance" xsi:schemaLocation="http://www.topografix.com/GPX/1/1 http://www.topografix.com/GPX/1/1/gpx.xsd" version="1.1" creator="VisuGPX - https://www.visugpx.com">
  <metadata>
    <name>4 AM Aiguebonne à col de Faubel par Dourbie </name>
  </metadata>
  <trk>
    <name><![CDATA[10784500-4 Aiguebonne à L'Hom par la Dourbie & l'Aigoual]]></name>
    <trkseg>
      <trkpt lat="44.11546" lon="3.41147">
        <ele>729</ele>
        <time>2020-01-04T18:41:20Z</time>
      </trkpt>
      <trkpt lat="44.11557" lon="3.41084">
        <ele>731</ele>
        <time>2020-01-04T18:41:31Z</time>
      </trkpt>
      <trkpt lat="44.11561" lon="3.40974">
        <ele>734</ele>
        <time>2020-01-04T18:41:49Z</time>
      </trkpt>
      <trkpt lat="44.11553" lon="3.40891">
        <ele>734</ele>
        <time>2020-01-04T18:42:03Z</time>
      </trkpt>
      <trkpt lat="44.11557" lon="3.408">
        <ele>738</ele>
        <time>2020-01-04T18:42:19Z</time>
      </trkpt>
      <trkpt lat="44.11548" lon="3.4074">
        <ele>739</ele>
        <time>2020-01-04T18:42:29Z</time>
      </trkpt>
      <trkpt lat="44.11542" lon="3.40722">
        <ele>741</ele>
        <time>2020-01-04T18:42:32Z</time>
      </trkpt>
      <trkpt lat="44.11538" lon="3.40713">
        <ele>742</ele>
        <time>2020-01-04T18:42:34Z</time>
      </trkpt>
      <trkpt lat="44.11531" lon="3.40707">
        <ele>741</ele>
        <time>2020-01-04T18:42:36Z</time>
      </trkpt>
      <trkpt lat="44.11509" lon="3.40698">
        <ele>737</ele>
        <time>2020-01-04T18:42:41Z</time>
      </trkpt>
      <trkpt lat="44.11489" lon="3.40693">
        <ele>734</ele>
        <time>2020-01-04T18:42:46Z</time>
      </trkpt>
      <trkpt lat="44.11435" lon="3.40658">
        <ele>727</ele>
        <time>2020-01-04T18:43:00Z</time>
      </trkpt>
      <trkpt lat="44.11425" lon="3.40648">
        <ele>726</ele>
        <time>2020-01-04T18:43:03Z</time>
      </trkpt>
      <trkpt lat="44.11421" lon="3.40639">
        <ele>726</ele>
        <time>2020-01-04T18:43:05Z</time>
      </trkpt>
      <trkpt lat="44.11417" lon="3.40626">
        <ele>727</ele>
        <time>2020-01-04T18:43:07Z</time>
      </trkpt>
      <trkpt lat="44.11416" lon="3.40609">
        <ele>729</ele>
        <time>2020-01-04T18:43:10Z</time>
      </trkpt>
      <trkpt lat="44.11413" lon="3.40601">
        <ele>730</ele>
        <time>2020-01-04T18:43:11Z</time>
      </trkpt>
      <trkpt lat="44.11407" lon="3.40594">
        <ele>730</ele>
        <time>2020-01-04T18:43:13Z</time>
      </trkpt>
      <trkpt lat="44.11384" lon="3.40584">
        <ele>729</ele>
        <time>2020-01-04T18:43:19Z</time>
      </trkpt>
      <trkpt lat="44.11376" lon="3.40586">
        <ele>727</ele>
        <time>2020-01-04T18:43:21Z</time>
      </trkpt>
      <trkpt lat="44.11353" lon="3.40599">
        <ele>723</ele>
        <time>2020-01-04T18:43:27Z</time>
      </trkpt>
      <trkpt lat="44.11344" lon="3.40597">
        <ele>722</ele>
        <time>2020-01-04T18:43:29Z</time>
      </trkpt>
      <trkpt lat="44.11336" lon="3.40589">
        <ele>722</ele>
        <time>2020-01-04T18:43:31Z</time>
      </trkpt>
      <trkpt lat="44.11325" lon="3.40535">
        <ele>729</ele>
        <time>2020-01-04T18:43:40Z</time>
      </trkpt>
      <trkpt lat="44.11316" lon="3.40468">
        <ele>734</ele>
        <time>2020-01-04T18:43:52Z</time>
      </trkpt>
      <trkpt lat="44.11306" lon="3.40431">
        <ele>733</ele>
        <time>2020-01-04T18:43:58Z</time>
      </trkpt>
      <trkpt lat="44.11271" lon="3.40358">
        <ele>730</ele>
        <time>2020-01-04T18:44:13Z</time>
      </trkpt>
      <trkpt lat="44.11255" lon="3.40335">
        <ele>727</ele>
        <time>2020-01-04T18:44:18Z</time>
      </trkpt>
      <trkpt lat="44.11213" lon="3.40294">
        <ele>726</ele>
        <time>2020-01-04T18:44:30Z</time>
      </trkpt>
      <trkpt lat="44.11185" lon="3.40263">
        <ele>725</ele>
        <time>2020-01-04T18:44:39Z</time>
      </trkpt>
      <trkpt lat="44.11174" lon="3.40254">
        <ele>723</ele>
        <time>2020-01-04T18:44:42Z</time>
      </trkpt>
      <trkpt lat="44.11117" lon="3.40221">
        <ele>726</ele>
        <time>2020-01-04T18:44:56Z</time>
      </trkpt>
      <trkpt lat="44.11106" lon="3.40219">
        <ele>726</ele>
        <time>2020-01-04T18:44:59Z</time>
      </trkpt>
      <trkpt lat="44.11083" lon="3.40222">
        <ele>723</ele>
        <time>2020-01-04T18:45:04Z</time>
      </trkpt>
      <trkpt lat="44.11048" lon="3.40221">
        <ele>721</ele>
        <time>2020-01-04T18:45:12Z</time>
      </trkpt>
      <trkpt lat="44.11001" lon="3.40215">
        <ele>719</ele>
        <time>2020-01-04T18:45:23Z</time>
      </trkpt>
      <trkpt lat="44.10973" lon="3.40204">
        <ele>719</ele>
        <time>2020-01-04T18:45:30Z</time>
      </trkpt>
      <trkpt lat="44.10945" lon="3.40188">
        <ele>718</ele>
        <time>2020-01-04T18:45:37Z</time>
      </trkpt>
      <trkpt lat="44.10907" lon="3.40155">
        <ele>716</ele>
        <time>2020-01-04T18:45:48Z</time>
      </trkpt>
      <trkpt lat="44.10851" lon="3.40099">
        <ele>712</ele>
        <time>2020-01-04T18:46:04Z</time>
      </trkpt>
      <trkpt lat="44.10832" lon="3.40077">
        <ele>709</ele>
        <time>2020-01-04T18:46:10Z</time>
      </trkpt>
      <trkpt lat="44.10811" lon="3.40046">
        <ele>711</ele>
        <time>2020-01-04T18:46:17Z</time>
      </trkpt>
      <trkpt lat="44.10805" lon="3.40049">
        <ele>710</ele>
        <time>2020-01-04T18:46:18Z</time>
      </trkpt>
      <trkpt lat="44.10809" lon="3.40044">
        <ele>711</ele>
        <time>2020-01-04T18:46:19Z</time>
      </trkpt>
      <trkpt lat="44.10793" lon="3.4002">
        <ele>711</ele>
        <time>2020-01-04T18:46:25Z</time>
      </trkpt>
      <trkpt lat="44.10753" lon="3.39989">
        <ele>709</ele>
        <time>2020-01-04T18:46:36Z</time>
      </trkpt>
      <trkpt lat="44.10652" lon="3.39926">
        <ele>708</ele>
        <time>2020-01-04T18:47:02Z</time>
      </trkpt>
      <trkpt lat="44.10623" lon="3.39912">
        <ele>710</ele>
        <time>2020-01-04T18:47:09Z</time>
      </trkpt>
      <trkpt lat="44.106" lon="3.39906">
        <ele>711</ele>
        <time>2020-01-04T18:47:14Z</time>
      </trkpt>
      <trkpt lat="44.10586" lon="3.39906">
        <ele>710</ele>
        <time>2020-01-04T18:47:17Z</time>
      </trkpt>
      <trkpt lat="44.1057" lon="3.39908">
        <ele>710</ele>
        <time>2020-01-04T18:47:21Z</time>
      </trkpt>
      <trkpt lat="44.10535" lon="3.3992">
        <ele>711</ele>
        <time>2020-01-04T18:47:30Z</time>
      </trkpt>
      <trkpt lat="44.10514" lon="3.39922">
        <ele>712</ele>
        <time>2020-01-04T18:47:35Z</time>
      </trkpt>
      <trkpt lat="44.10496" lon="3.39927">
        <ele>714</ele>
        <time>2020-01-04T18:47:39Z</time>
      </trkpt>
      <trkpt lat="44.10482" lon="3.39936">
        <ele>716</ele>
        <time>2020-01-04T18:47:42Z</time>
      </trkpt>
      <trkpt lat="44.10472" lon="3.39946">
        <ele>717</ele>
        <time>2020-01-04T18:47:45Z</time>
      </trkpt>
      <trkpt lat="44.10446" lon="3.39984">
        <ele>714</ele>
        <time>2020-01-04T18:47:54Z</time>
      </trkpt>
      <trkpt lat="44.10409" lon="3.40029">
        <ele>713</ele>
        <time>2020-01-04T18:48:06Z</time>
      </trkpt>
      <trkpt lat="44.10373" lon="3.40063">
        <ele>712</ele>
        <time>2020-01-04T18:48:16Z</time>
      </trkpt>
      <trkpt lat="44.10353" lon="3.40071">
        <ele>711</ele>
        <time>2020-01-04T18:48:21Z</time>
      </trkpt>
      <trkpt lat="44.10358" lon="3.40108">
        <ele>715</ele>
        <time>2020-01-04T18:48:27Z</time>
      </trkpt>
      <trkpt lat="44.10364" lon="3.40119">
        <ele>717</ele>
        <time>2020-01-04T18:48:29Z</time>
      </trkpt>
      <trkpt lat="44.10371" lon="3.40123">
        <ele>718</ele>
        <time>2020-01-04T18:48:31Z</time>
      </trkpt>
      <trkpt lat="44.10395" lon="3.40118">
        <ele>717</ele>
        <time>2020-01-04T18:48:37Z</time>
      </trkpt>
      <trkpt lat="44.10438" lon="3.40094">
        <ele>709</ele>
        <time>2020-01-04T18:48:47Z</time>
      </trkpt>
      <trkpt lat="44.10465" lon="3.40087">
        <ele>707</ele>
        <time>2020-01-04T18:48:54Z</time>
      </trkpt>
      <trkpt lat="44.10473" lon="3.40088">
        <ele>707</ele>
        <time>2020-01-04T18:48:56Z</time>
      </trkpt>
      <trkpt lat="44.10477" lon="3.40096">
        <ele>709</ele>
        <time>2020-01-04T18:48:57Z</time>
      </trkpt>
      <trkpt lat="44.10472" lon="3.40105">
        <ele>711</ele>
        <time>2020-01-04T18:48:59Z</time>
      </trkpt>
      <trkpt lat="44.10419" lon="3.4013">
        <ele>720</ele>
        <time>2020-01-04T18:49:12Z</time>
      </trkpt>
      <trkpt lat="44.10409" lon="3.4014">
        <ele>723</ele>
        <time>2020-01-04T18:49:15Z</time>
      </trkpt>
      <trkpt lat="44.10408" lon="3.40148">
        <ele>725</ele>
        <time>2020-01-04T18:49:17Z</time>
      </trkpt>
      <trkpt lat="44.10418" lon="3.40151">
        <ele>726</ele>
        <time>2020-01-04T18:49:19Z</time>
      </trkpt>
      <trkpt lat="44.10439" lon="3.40142">
        <ele>722</ele>
        <time>2020-01-04T18:49:24Z</time>
      </trkpt>
      <trkpt lat="44.10458" lon="3.40141">
        <ele>721</ele>
        <time>2020-01-04T18:49:29Z</time>
      </trkpt>
      <trkpt lat="44.10472" lon="3.40151">
        <ele>723</ele>
        <time>2020-01-04T18:49:32Z</time>
      </trkpt>
      <trkpt lat="44.10471" lon="3.40155">
        <ele>724</ele>
        <time>2020-01-04T18:49:33Z</time>
      </trkpt>
      <trkpt lat="44.10467" lon="3.40157">
        <ele>725</ele>
        <time>2020-01-04T18:49:34Z</time>
      </trkpt>
      <trkpt lat="44.10446" lon="3.4015">
        <ele>724</ele>
        <time>2020-01-04T18:49:39Z</time>
      </trkpt>
      <trkpt lat="44.10436" lon="3.4015">
        <ele>725</ele>
        <time>2020-01-04T18:49:41Z</time>
      </trkpt>
      <trkpt lat="44.10411" lon="3.40166">
        <ele>730</ele>
        <time>2020-01-04T18:49:48Z</time>
      </trkpt>
      <trkpt lat="44.10362" lon="3.40177">
        <ele>736</ele>
        <time>2020-01-04T18:49:59Z</time>
      </trkpt>
      <trkpt lat="44.10349" lon="3.40185">
        <ele>741</ele>
        <time>2020-01-04T18:50:03Z</time>
      </trkpt>
      <trkpt lat="44.10329" lon="3.40192">
        <ele>745</ele>
        <time>2020-01-04T18:50:07Z</time>
      </trkpt>
      <trkpt lat="44.10323" lon="3.40192">
        <ele>745</ele>
        <time>2020-01-04T18:50:09Z</time>
      </trkpt>
      <trkpt lat="44.103" lon="3.40184">
        <ele>739</ele>
        <time>2020-01-04T18:50:14Z</time>
      </trkpt>
      <trkpt lat="44.10266" lon="3.40189">
        <ele>739</ele>
        <time>2020-01-04T18:50:22Z</time>
      </trkpt>
      <trkpt lat="44.10198" lon="3.40212">
        <ele>744</ele>
        <time>2020-01-04T18:50:39Z</time>
      </trkpt>
      <trkpt lat="44.10137" lon="3.40254">
        <ele>760</ele>
        <time>2020-01-04T18:50:55Z</time>
      </trkpt>
      <trkpt lat="44.10123" lon="3.40256">
        <ele>761</ele>
        <time>2020-01-04T18:50:58Z</time>
      </trkpt>
      <trkpt lat="44.1011" lon="3.40252">
        <ele>759</ele>
        <time>2020-01-04T18:51:01Z</time>
      </trkpt>
      <trkpt lat="44.10089" lon="3.4025">
        <ele>758</ele>
        <time>2020-01-04T18:51:06Z</time>
      </trkpt>
      <trkpt lat="44.10078" lon="3.40252">
        <ele>761</ele>
        <time>2020-01-04T18:51:08Z</time>
      </trkpt>
      <trkpt lat="44.10077" lon="3.40258">
        <ele>764</ele>
        <time>2020-01-04T18:51:10Z</time>
      </trkpt>
      <trkpt lat="44.1013" lon="3.40273">
        <ele>769</ele>
        <time>2020-01-04T18:51:22Z</time>
      </trkpt>
      <trkpt lat="44.10225" lon="3.40254">
        <ele>766</ele>
        <time>2020-01-04T18:51:45Z</time>
      </trkpt>
      <trkpt lat="44.10268" lon="3.40254">
        <ele>771</ele>
        <time>2020-01-04T18:51:55Z</time>
      </trkpt>
      <trkpt lat="44.10341" lon="3.4026">
        <ele>782</ele>
        <time>2020-01-04T18:52:12Z</time>
      </trkpt>
      <trkpt lat="44.10407" lon="3.4026">
        <ele>777</ele>
        <time>2020-01-04T18:52:27Z</time>
      </trkpt>
      <trkpt lat="44.10417" lon="3.40263">
        <ele>778</ele>
        <time>2020-01-04T18:52:29Z</time>
      </trkpt>
      <trkpt lat="44.10421" lon="3.40266">
        <ele>778</ele>
        <time>2020-01-04T18:52:31Z</time>
      </trkpt>
      <trkpt lat="44.10423" lon="3.40272">
        <ele>780</ele>
        <time>2020-01-04T18:52:32Z</time>
      </trkpt>
      <trkpt lat="44.10424" lon="3.40301">
        <ele>791</ele>
        <time>2020-01-04T18:52:37Z</time>
      </trkpt>
      <trkpt lat="44.10429" lon="3.40317">
        <ele>796</ele>
        <time>2020-01-04T18:52:39Z</time>
      </trkpt>
      <trkpt lat="44.10435" lon="3.40313">
        <ele>793</ele>
        <time>2020-01-04T18:52:41Z</time>
      </trkpt>
      <trkpt lat="44.10429" lon="3.40317">
        <ele>796</ele>
        <time>2020-01-04T18:52:43Z</time>
      </trkpt>
      <trkpt lat="44.10426" lon="3.40308">
        <ele>793</ele>
        <time>2020-01-04T18:52:44Z</time>
      </trkpt>
      <trkpt lat="44.10466" lon="3.40409">
        <ele>809</ele>
        <time>2020-01-04T18:53:04Z</time>
      </trkpt>
      <trkpt lat="44.10471" lon="3.40427">
        <ele>811</ele>
        <time>2020-01-04T18:53:07Z</time>
      </trkpt>
      <trkpt lat="44.10474" lon="3.40458">
        <ele>816</ele>
        <time>2020-01-04T18:53:12Z</time>
      </trkpt>
      <trkpt lat="44.10489" lon="3.40497">
        <ele>819</ele>
        <time>2020-01-04T18:53:19Z</time>
      </trkpt>
      <trkpt lat="44.10494" lon="3.40505">
        <ele>819</ele>
        <time>2020-01-04T18:53:21Z</time>
      </trkpt>
      <trkpt lat="44.10502" lon="3.40509">
        <ele>819</ele>
        <time>2020-01-04T18:53:23Z</time>
      </trkpt>
      <trkpt lat="44.10506" lon="3.40508">
        <ele>819</ele>
        <time>2020-01-04T18:53:24Z</time>
      </trkpt>
      <trkpt lat="44.10509" lon="3.40504">
        <ele>819</ele>
        <time>2020-01-04T18:53:25Z</time>
      </trkpt>
      <trkpt lat="44.10516" lon="3.40464">
        <ele>814</ele>
        <time>2020-01-04T18:53:32Z</time>
      </trkpt>
      <trkpt lat="44.10517" lon="3.4044">
        <ele>810</ele>
        <time>2020-01-04T18:53:36Z</time>
      </trkpt>
      <trkpt lat="44.10523" lon="3.40412">
        <ele>806</ele>
        <time>2020-01-04T18:53:41Z</time>
      </trkpt>
      <trkpt lat="44.10544" lon="3.40374">
        <ele>804</ele>
        <time>2020-01-04T18:53:49Z</time>
      </trkpt>
      <trkpt lat="44.10563" lon="3.40356">
        <ele>804</ele>
        <time>2020-01-04T18:53:54Z</time>
      </trkpt>
      <trkpt lat="44.10573" lon="3.40351">
        <ele>805</ele>
        <time>2020-01-04T18:53:57Z</time>
      </trkpt>
      <trkpt lat="44.1059" lon="3.4035">
        <ele>806</ele>
        <time>2020-01-04T18:54:01Z</time>
      </trkpt>
      <trkpt lat="44.10606" lon="3.40357">
        <ele>806</ele>
        <time>2020-01-04T18:54:05Z</time>
      </trkpt>
      <trkpt lat="44.10618" lon="3.40369">
        <ele>807</ele>
        <time>2020-01-04T18:54:08Z</time>
      </trkpt>
      <trkpt lat="44.10623" lon="3.40379">
        <ele>809</ele>
        <time>2020-01-04T18:54:10Z</time>
      </trkpt>
      <trkpt lat="44.10629" lon="3.40403">
        <ele>814</ele>
        <time>2020-01-04T18:54:15Z</time>
      </trkpt>
      <trkpt lat="44.1063" lon="3.4044">
        <ele>820</ele>
        <time>2020-01-04T18:54:21Z</time>
      </trkpt>
      <trkpt lat="44.10628" lon="3.40464">
        <ele>824</ele>
        <time>2020-01-04T18:54:25Z</time>
      </trkpt>
      <trkpt lat="44.1063" lon="3.40479">
        <ele>826</ele>
        <time>2020-01-04T18:54:27Z</time>
      </trkpt>
      <trkpt lat="44.10635" lon="3.40486">
        <ele>826</ele>
        <time>2020-01-04T18:54:29Z</time>
      </trkpt>
      <trkpt lat="44.10657" lon="3.40498">
        <ele>826</ele>
        <time>2020-01-04T18:54:35Z</time>
      </trkpt>
      <trkpt lat="44.10713" lon="3.40546">
        <ele>831</ele>
        <time>2020-01-04T18:54:50Z</time>
      </trkpt>
      <trkpt lat="44.1074" lon="3.40577">
        <ele>835</ele>
        <time>2020-01-04T18:54:58Z</time>
      </trkpt>
      <trkpt lat="44.10741" lon="3.40586">
        <ele>837</ele>
        <time>2020-01-04T18:55:00Z</time>
      </trkpt>
      <trkpt lat="44.10735" lon="3.40588">
        <ele>838</ele>
        <time>2020-01-04T18:55:01Z</time>
      </trkpt>
      <trkpt lat="44.10709" lon="3.40579">
        <ele>839</ele>
        <time>2020-01-04T18:55:07Z</time>
      </trkpt>
      <trkpt lat="44.107" lon="3.40571">
        <ele>838</ele>
        <time>2020-01-04T18:55:10Z</time>
      </trkpt>
      <trkpt lat="44.10626" lon="3.40524">
        <ele>834</ele>
        <time>2020-01-04T18:55:29Z</time>
      </trkpt>
      <trkpt lat="44.10607" lon="3.40519">
        <ele>834</ele>
        <time>2020-01-04T18:55:33Z</time>
      </trkpt>
      <trkpt lat="44.10587" lon="3.40518">
        <ele>835</ele>
        <time>2020-01-04T18:55:38Z</time>
      </trkpt>
      <trkpt lat="44.10582" lon="3.40525">
        <ele>836</ele>
        <time>2020-01-04T18:55:40Z</time>
      </trkpt>
      <trkpt lat="44.10573" lon="3.40561">
        <ele>840</ele>
        <time>2020-01-04T18:55:46Z</time>
      </trkpt>
      <trkpt lat="44.1054" lon="3.40637">
        <ele>848</ele>
        <time>2020-01-04T18:56:01Z</time>
      </trkpt>
      <trkpt lat="44.105" lon="3.40694">
        <ele>848</ele>
        <time>2020-01-04T18:56:14Z</time>
      </trkpt>
      <trkpt lat="44.1049" lon="3.40703">
        <ele>851</ele>
        <time>2020-01-04T18:56:17Z</time>
      </trkpt>
      <trkpt lat="44.10466" lon="3.40718">
        <ele>855</ele>
        <time>2020-01-04T18:56:23Z</time>
      </trkpt>
      <trkpt lat="44.10466" lon="3.40723">
        <ele>856</ele>
        <time>2020-01-04T18:56:24Z</time>
      </trkpt>
      <trkpt lat="44.10471" lon="3.40727">
        <ele>856</ele>
        <time>2020-01-04T18:56:25Z</time>
      </trkpt>
      <trkpt lat="44.10482" lon="3.40726">
        <ele>855</ele>
        <time>2020-01-04T18:56:28Z</time>
      </trkpt>
      <trkpt lat="44.10505" lon="3.40718">
        <ele>854</ele>
        <time>2020-01-04T18:56:33Z</time>
      </trkpt>
      <trkpt lat="44.10522" lon="3.40708">
        <ele>857</ele>
        <time>2020-01-04T18:56:38Z</time>
      </trkpt>
      <trkpt lat="44.10539" lon="3.40691">
        <ele>859</ele>
        <time>2020-01-04T18:56:43Z</time>
      </trkpt>
      <trkpt lat="44.10585" lon="3.4062">
        <ele>854</ele>
        <time>2020-01-04T18:56:59Z</time>
      </trkpt>
      <trkpt lat="44.1059" lon="3.40617">
        <ele>853</ele>
        <time>2020-01-04T18:57:00Z</time>
      </trkpt>
      <trkpt lat="44.10601" lon="3.40617">
        <ele>854</ele>
        <time>2020-01-04T18:57:03Z</time>
      </trkpt>
      <trkpt lat="44.10665" lon="3.40644">
        <ele>865</ele>
        <time>2020-01-04T18:57:18Z</time>
      </trkpt>
      <trkpt lat="44.1067" lon="3.40648">
        <ele>865</ele>
        <time>2020-01-04T18:57:20Z</time>
      </trkpt>
      <trkpt lat="44.10707" lon="3.40695">
        <ele>873</ele>
        <time>2020-01-04T18:57:31Z</time>
      </trkpt>
      <trkpt lat="44.10721" lon="3.40718">
        <ele>878</ele>
        <time>2020-01-04T18:57:36Z</time>
      </trkpt>
      <trkpt lat="44.10737" lon="3.40734">
        <ele>881</ele>
        <time>2020-01-04T18:57:41Z</time>
      </trkpt>
      <trkpt lat="44.10756" lon="3.40745">
        <ele>882</ele>
        <time>2020-01-04T18:57:46Z</time>
      </trkpt>
      <trkpt lat="44.10799" lon="3.40762">
        <ele>883</ele>
        <time>2020-01-04T18:57:56Z</time>
      </trkpt>
      <trkpt lat="44.10835" lon="3.40773">
        <ele>882</ele>
        <time>2020-01-04T18:58:05Z</time>
      </trkpt>
      <trkpt lat="44.10844" lon="3.40779">
        <ele>881</ele>
        <time>2020-01-04T18:58:07Z</time>
      </trkpt>
      <trkpt lat="44.10853" lon="3.4079">
        <ele>881</ele>
        <time>2020-01-04T18:58:10Z</time>
      </trkpt>
      <trkpt lat="44.10857" lon="3.40805">
        <ele>882</ele>
        <time>2020-01-04T18:58:13Z</time>
      </trkpt>
      <trkpt lat="44.10858" lon="3.40827">
        <ele>887</ele>
        <time>2020-01-04T18:58:16Z</time>
      </trkpt>
      <trkpt lat="44.10862" lon="3.40848">
        <ele>890</ele>
        <time>2020-01-04T18:58:20Z</time>
      </trkpt>
      <trkpt lat="44.10861" lon="3.4086">
        <ele>893</ele>
        <time>2020-01-04T18:58:22Z</time>
      </trkpt>
      <trkpt lat="44.10858" lon="3.40863">
        <ele>894</ele>
        <time>2020-01-04T18:58:23Z</time>
      </trkpt>
      <trkpt lat="44.10855" lon="3.40857">
        <ele>894</ele>
        <time>2020-01-04T18:58:24Z</time>
      </trkpt>
      <trkpt lat="44.10852" lon="3.40833">
        <ele>890</ele>
        <time>2020-01-04T18:58:28Z</time>
      </trkpt>
      <trkpt lat="44.10846" lon="3.40812">
        <ele>888</ele>
        <time>2020-01-04T18:58:32Z</time>
      </trkpt>
      <trkpt lat="44.1084" lon="3.40804">
        <ele>888</ele>
        <time>2020-01-04T18:58:34Z</time>
      </trkpt>
      <trkpt lat="44.10832" lon="3.408">
        <ele>889</ele>
        <time>2020-01-04T18:58:36Z</time>
      </trkpt>
      <trkpt lat="44.10814" lon="3.40798">
        <ele>892</ele>
        <time>2020-01-04T18:58:40Z</time>
      </trkpt>
      <trkpt lat="44.10749" lon="3.40804">
        <ele>904</ele>
        <time>2020-01-04T18:58:55Z</time>
      </trkpt>
      <trkpt lat="44.10705" lon="3.40803">
        <ele>907</ele>
        <time>2020-01-04T18:59:05Z</time>
      </trkpt>
      <trkpt lat="44.10683" lon="3.40798">
        <ele>907</ele>
        <time>2020-01-04T18:59:11Z</time>
      </trkpt>
      <trkpt lat="44.10653" lon="3.40784">
        <ele>901</ele>
        <time>2020-01-04T18:59:18Z</time>
      </trkpt>
      <trkpt lat="44.10636" lon="3.40781">
        <ele>898</ele>
        <time>2020-01-04T18:59:22Z</time>
      </trkpt>
      <trkpt lat="44.10629" lon="3.40783">
        <ele>898</ele>
        <time>2020-01-04T18:59:24Z</time>
      </trkpt>
      <trkpt lat="44.1062" lon="3.40787">
        <ele>898</ele>
        <time>2020-01-04T18:59:26Z</time>
      </trkpt>
      <trkpt lat="44.10614" lon="3.40795">
        <ele>900</ele>
        <time>2020-01-04T18:59:28Z</time>
      </trkpt>
      <trkpt lat="44.10591" lon="3.40845">
        <ele>910</ele>
        <time>2020-01-04T18:59:38Z</time>
      </trkpt>
      <trkpt lat="44.10574" lon="3.40872">
        <ele>915</ele>
        <time>2020-01-04T18:59:44Z</time>
      </trkpt>
      <trkpt lat="44.10554" lon="3.40886">
        <ele>915</ele>
        <time>2020-01-04T18:59:49Z</time>
      </trkpt>
      <trkpt lat="44.10548" lon="3.40893">
        <ele>915</ele>
        <time>2020-01-04T18:59:51Z</time>
      </trkpt>
      <trkpt lat="44.10486" lon="3.40983">
        <ele>921</ele>
        <time>2020-01-04T19:00:12Z</time>
      </trkpt>
      <trkpt lat="44.10446" lon="3.41026">
        <ele>925</ele>
        <time>2020-01-04T19:00:24Z</time>
      </trkpt>
      <trkpt lat="44.10429" lon="3.41038">
        <ele>925</ele>
        <time>2020-01-04T19:00:28Z</time>
      </trkpt>
      <trkpt lat="44.10422" lon="3.4104">
        <ele>925</ele>
        <time>2020-01-04T19:00:30Z</time>
      </trkpt>
      <trkpt lat="44.1041" lon="3.4104">
        <ele>924</ele>
        <time>2020-01-04T19:00:33Z</time>
      </trkpt>
      <trkpt lat="44.10387" lon="3.41035">
        <ele>924</ele>
        <time>2020-01-04T19:00:38Z</time>
      </trkpt>
      <trkpt lat="44.10373" lon="3.41029">
        <ele>924</ele>
        <time>2020-01-04T19:00:41Z</time>
      </trkpt>
      <trkpt lat="44.10316" lon="3.40991">
        <ele>918</ele>
        <time>2020-01-04T19:00:56Z</time>
      </trkpt>
      <trkpt lat="44.10291" lon="3.40982">
        <ele>919</ele>
        <time>2020-01-04T19:01:02Z</time>
      </trkpt>
      <trkpt lat="44.10272" lon="3.40976">
        <ele>920</ele>
        <time>2020-01-04T19:01:07Z</time>
      </trkpt>
      <trkpt lat="44.10252" lon="3.40975">
        <ele>922</ele>
        <time>2020-01-04T19:01:11Z</time>
      </trkpt>
      <trkpt lat="44.10196" lon="3.40965">
        <ele>927</ele>
        <time>2020-01-04T19:01:25Z</time>
      </trkpt>
      <trkpt lat="44.1018" lon="3.40958">
        <ele>928</ele>
        <time>2020-01-04T19:01:29Z</time>
      </trkpt>
      <trkpt lat="44.10169" lon="3.40936">
        <ele>928</ele>
        <time>2020-01-04T19:01:33Z</time>
      </trkpt>
      <trkpt lat="44.10164" lon="3.40971">
        <ele>931</ele>
        <time>2020-01-04T19:01:39Z</time>
      </trkpt>
      <trkpt lat="44.10158" lon="3.4098">
        <ele>931</ele>
        <time>2020-01-04T19:01:41Z</time>
      </trkpt>
      <trkpt lat="44.10144" lon="3.40987">
        <ele>930</ele>
        <time>2020-01-04T19:01:45Z</time>
      </trkpt>
      <trkpt lat="44.10128" lon="3.40989">
        <ele>928</ele>
        <time>2020-01-04T19:01:48Z</time>
      </trkpt>
      <trkpt lat="44.10106" lon="3.40999">
        <ele>926</ele>
        <time>2020-01-04T19:01:54Z</time>
      </trkpt>
      <trkpt lat="44.10057" lon="3.41046">
        <ele>915</ele>
        <time>2020-01-04T19:02:08Z</time>
      </trkpt>
      <trkpt lat="44.10046" lon="3.41061">
        <ele>911</ele>
        <time>2020-01-04T19:02:11Z</time>
      </trkpt>
      <trkpt lat="44.1004" lon="3.41075">
        <ele>909</ele>
        <time>2020-01-04T19:02:14Z</time>
      </trkpt>
      <trkpt lat="44.10041" lon="3.41087">
        <ele>909</ele>
        <time>2020-01-04T19:02:16Z</time>
      </trkpt>
      <trkpt lat="44.10051" lon="3.41114">
        <ele>909</ele>
        <time>2020-01-04T19:02:21Z</time>
      </trkpt>
      <trkpt lat="44.10065" lon="3.41135">
        <ele>911</ele>
        <time>2020-01-04T19:02:26Z</time>
      </trkpt>
      <trkpt lat="44.10076" lon="3.41139">
        <ele>915</ele>
        <time>2020-01-04T19:02:29Z</time>
      </trkpt>
      <trkpt lat="44.10087" lon="3.41147">
        <ele>918</ele>
        <time>2020-01-04T19:02:31Z</time>
      </trkpt>
      <trkpt lat="44.10094" lon="3.41156">
        <ele>919</ele>
        <time>2020-01-04T19:02:34Z</time>
      </trkpt>
      <trkpt lat="44.10114" lon="3.41188">
        <ele>926</ele>
        <time>2020-01-04T19:02:41Z</time>
      </trkpt>
      <trkpt lat="44.10115" lon="3.41201">
        <ele>927</ele>
        <time>2020-01-04T19:02:43Z</time>
      </trkpt>
      <trkpt lat="44.10112" lon="3.41209">
        <ele>926</ele>
        <time>2020-01-04T19:02:44Z</time>
      </trkpt>
      <trkpt lat="44.10083" lon="3.41232">
        <ele>919</ele>
        <time>2020-01-04T19:02:52Z</time>
      </trkpt>
      <trkpt lat="44.10036" lon="3.41263">
        <ele>909</ele>
        <time>2020-01-04T19:03:04Z</time>
      </trkpt>
      <trkpt lat="44.10034" lon="3.41268">
        <ele>909</ele>
        <time>2020-01-04T19:03:05Z</time>
      </trkpt>
      <trkpt lat="44.10033" lon="3.41272">
        <ele>910</ele>
        <time>2020-01-04T19:03:06Z</time>
      </trkpt>
      <trkpt lat="44.10041" lon="3.41308">
        <ele>919</ele>
        <time>2020-01-04T19:03:12Z</time>
      </trkpt>
      <trkpt lat="44.10034" lon="3.4133">
        <ele>920</ele>
        <time>2020-01-04T19:03:16Z</time>
      </trkpt>
      <trkpt lat="44.1002" lon="3.41358">
        <ele>920</ele>
        <time>2020-01-04T19:03:22Z</time>
      </trkpt>
      <trkpt lat="44.10018" lon="3.41386">
        <ele>923</ele>
        <time>2020-01-04T19:03:27Z</time>
      </trkpt>
      <trkpt lat="44.1002" lon="3.41394">
        <ele>926</ele>
        <time>2020-01-04T19:03:28Z</time>
      </trkpt>
      <trkpt lat="44.10029" lon="3.41405">
        <ele>931</ele>
        <time>2020-01-04T19:03:31Z</time>
      </trkpt>
      <trkpt lat="44.10035" lon="3.41419">
        <ele>935</ele>
        <time>2020-01-04T19:03:34Z</time>
      </trkpt>
      <trkpt lat="44.10033" lon="3.41431">
        <ele>936</ele>
        <time>2020-01-04T19:03:36Z</time>
      </trkpt>
      <trkpt lat="44.1002" lon="3.41453">
        <ele>935</ele>
        <time>2020-01-04T19:03:41Z</time>
      </trkpt>
      <trkpt lat="44.10013" lon="3.41474">
        <ele>936</ele>
        <time>2020-01-04T19:03:45Z</time>
      </trkpt>
      <trkpt lat="44.10003" lon="3.41513">
        <ele>939</ele>
        <time>2020-01-04T19:03:51Z</time>
      </trkpt>
      <trkpt lat="44.1" lon="3.4154">
        <ele>943</ele>
        <time>2020-01-04T19:03:56Z</time>
      </trkpt>
      <trkpt lat="44.09995" lon="3.41543">
        <ele>944</ele>
        <time>2020-01-04T19:03:57Z</time>
      </trkpt>
      <trkpt lat="44.09987" lon="3.41537">
        <ele>944</ele>
        <time>2020-01-04T19:03:59Z</time>
      </trkpt>
      <trkpt lat="44.09967" lon="3.41496">
        <ele>940</ele>
        <time>2020-01-04T19:04:08Z</time>
      </trkpt>
      <trkpt lat="44.09955" lon="3.41461">
        <ele>937</ele>
        <time>2020-01-04T19:04:14Z</time>
      </trkpt>
      <trkpt lat="44.09951" lon="3.41429">
        <ele>933</ele>
        <time>2020-01-04T19:04:20Z</time>
      </trkpt>
      <trkpt lat="44.09951" lon="3.41404">
        <ele>929</ele>
        <time>2020-01-04T19:04:24Z</time>
      </trkpt>
      <trkpt lat="44.09941" lon="3.4136">
        <ele>922</ele>
        <time>2020-01-04T19:04:32Z</time>
      </trkpt>
      <trkpt lat="44.09934" lon="3.41347">
        <ele>921</ele>
        <time>2020-01-04T19:04:34Z</time>
      </trkpt>
      <trkpt lat="44.09921" lon="3.41335">
        <ele>921</ele>
        <time>2020-01-04T19:04:38Z</time>
      </trkpt>
      <trkpt lat="44.09911" lon="3.41312">
        <ele>913</ele>
        <time>2020-01-04T19:04:43Z</time>
      </trkpt>
      <trkpt lat="44.09899" lon="3.41303">
        <ele>910</ele>
        <time>2020-01-04T19:04:46Z</time>
      </trkpt>
      <trkpt lat="44.09833" lon="3.41278">
        <ele>901</ele>
        <time>2020-01-04T19:05:02Z</time>
      </trkpt>
      <trkpt lat="44.0982" lon="3.41285">
        <ele>897</ele>
        <time>2020-01-04T19:05:05Z</time>
      </trkpt>
      <trkpt lat="44.09806" lon="3.413">
        <ele>893</ele>
        <time>2020-01-04T19:05:09Z</time>
      </trkpt>
      <trkpt lat="44.09803" lon="3.41312">
        <ele>894</ele>
        <time>2020-01-04T19:05:11Z</time>
      </trkpt>
      <trkpt lat="44.09809" lon="3.41323">
        <ele>899</ele>
        <time>2020-01-04T19:05:14Z</time>
      </trkpt>
      <trkpt lat="44.09809" lon="3.41335">
        <ele>901</ele>
        <time>2020-01-04T19:05:16Z</time>
      </trkpt>
      <trkpt lat="44.09801" lon="3.41362">
        <ele>898</ele>
        <time>2020-01-04T19:05:20Z</time>
      </trkpt>
      <trkpt lat="44.09802" lon="3.41369">
        <ele>899</ele>
        <time>2020-01-04T19:05:22Z</time>
      </trkpt>
      <trkpt lat="44.09813" lon="3.4139">
        <ele>907</ele>
        <time>2020-01-04T19:05:26Z</time>
      </trkpt>
      <trkpt lat="44.09816" lon="3.41403">
        <ele>909</ele>
        <time>2020-01-04T19:05:28Z</time>
      </trkpt>
      <trkpt lat="44.09812" lon="3.4142">
        <ele>908</ele>
        <time>2020-01-04T19:05:31Z</time>
      </trkpt>
      <trkpt lat="44.09812" lon="3.4143">
        <ele>909</ele>
        <time>2020-01-04T19:05:33Z</time>
      </trkpt>
      <trkpt lat="44.09817" lon="3.41448">
        <ele>913</ele>
        <time>2020-01-04T19:05:36Z</time>
      </trkpt>
      <trkpt lat="44.09816" lon="3.41472">
        <ele>914</ele>
        <time>2020-01-04T19:05:40Z</time>
      </trkpt>
      <trkpt lat="44.09794" lon="3.41536">
        <ele>905</ele>
        <time>2020-01-04T19:05:52Z</time>
      </trkpt>
      <trkpt lat="44.09784" lon="3.41605">
        <ele>906</ele>
        <time>2020-01-04T19:06:04Z</time>
      </trkpt>
      <trkpt lat="44.09763" lon="3.4164">
        <ele>897</ele>
        <time>2020-01-04T19:06:12Z</time>
      </trkpt>
      <trkpt lat="44.09761" lon="3.41669">
        <ele>899</ele>
        <time>2020-01-04T19:06:16Z</time>
      </trkpt>
      <trkpt lat="44.09775" lon="3.41701">
        <ele>911</ele>
        <time>2020-01-04T19:06:23Z</time>
      </trkpt>
      <trkpt lat="44.09776" lon="3.41716">
        <ele>913</ele>
        <time>2020-01-04T19:06:25Z</time>
      </trkpt>
      <trkpt lat="44.09772" lon="3.41725">
        <ele>911</ele>
        <time>2020-01-04T19:06:27Z</time>
      </trkpt>
      <trkpt lat="44.09757" lon="3.41738">
        <ele>902</ele>
        <time>2020-01-04T19:06:31Z</time>
      </trkpt>
      <trkpt lat="44.09717" lon="3.41802">
        <ele>897</ele>
        <time>2020-01-04T19:06:45Z</time>
      </trkpt>
      <trkpt lat="44.09713" lon="3.4181">
        <ele>897</ele>
        <time>2020-01-04T19:06:47Z</time>
      </trkpt>
      <trkpt lat="44.09714" lon="3.41835">
        <ele>900</ele>
        <time>2020-01-04T19:06:51Z</time>
      </trkpt>
      <trkpt lat="44.09711" lon="3.41838">
        <ele>900</ele>
        <time>2020-01-04T19:06:52Z</time>
      </trkpt>
      <trkpt lat="44.09688" lon="3.41845">
        <ele>894</ele>
        <time>2020-01-04T19:06:58Z</time>
      </trkpt>
      <trkpt lat="44.09674" lon="3.41864">
        <ele>893</ele>
        <time>2020-01-04T19:07:02Z</time>
      </trkpt>
      <trkpt lat="44.09648" lon="3.41887">
        <ele>901</ele>
        <time>2020-01-04T19:07:09Z</time>
      </trkpt>
      <trkpt lat="44.09634" lon="3.41914">
        <ele>907</ele>
        <time>2020-01-04T19:07:15Z</time>
      </trkpt>
      <trkpt lat="44.09611" lon="3.41988">
        <ele>913</ele>
        <time>2020-01-04T19:07:28Z</time>
      </trkpt>
      <trkpt lat="44.09599" lon="3.41982">
        <ele>912</ele>
        <time>2020-01-04T19:07:31Z</time>
      </trkpt>
      <trkpt lat="44.09597" lon="3.41883">
        <ele>916</ele>
        <time>2020-01-04T19:07:48Z</time>
      </trkpt>
      <trkpt lat="44.09624" lon="3.41737">
        <ele>900</ele>
        <time>2020-01-04T19:08:13Z</time>
      </trkpt>
      <trkpt lat="44.09626" lon="3.41675">
        <ele>894</ele>
        <time>2020-01-04T19:08:24Z</time>
      </trkpt>
      <trkpt lat="44.09616" lon="3.41581">
        <ele>885</ele>
        <time>2020-01-04T19:08:40Z</time>
      </trkpt>
      <trkpt lat="44.09613" lon="3.41521">
        <ele>878</ele>
        <time>2020-01-04T19:08:50Z</time>
      </trkpt>
      <trkpt lat="44.09589" lon="3.41423">
        <ele>870</ele>
        <time>2020-01-04T19:09:07Z</time>
      </trkpt>
      <trkpt lat="44.09575" lon="3.41391">
        <ele>867</ele>
        <time>2020-01-04T19:09:13Z</time>
      </trkpt>
      <trkpt lat="44.09544" lon="3.41378">
        <ele>871</ele>
        <time>2020-01-04T19:09:21Z</time>
      </trkpt>
      <trkpt lat="44.09508" lon="3.41377">
        <ele>878</ele>
        <time>2020-01-04T19:09:29Z</time>
      </trkpt>
      <trkpt lat="44.09466" lon="3.41368">
        <ele>878</ele>
        <time>2020-01-04T19:09:39Z</time>
      </trkpt>
      <trkpt lat="44.093" lon="3.41296">
        <ele>858</ele>
        <time>2020-01-04T19:10:20Z</time>
      </trkpt>
      <trkpt lat="44.09272" lon="3.41278">
        <ele>850</ele>
        <time>2020-01-04T19:10:27Z</time>
      </trkpt>
      <trkpt lat="44.09239" lon="3.41276">
        <ele>847</ele>
        <time>2020-01-04T19:10:35Z</time>
      </trkpt>
      <trkpt lat="44.0923" lon="3.41281">
        <ele>849</ele>
        <time>2020-01-04T19:10:37Z</time>
      </trkpt>
      <trkpt lat="44.09215" lon="3.41303">
        <ele>854</ele>
        <time>2020-01-04T19:10:42Z</time>
      </trkpt>
      <trkpt lat="44.09197" lon="3.41349">
        <ele>862</ele>
        <time>2020-01-04T19:10:51Z</time>
      </trkpt>
      <trkpt lat="44.09191" lon="3.41357">
        <ele>864</ele>
        <time>2020-01-04T19:10:53Z</time>
      </trkpt>
      <trkpt lat="44.09176" lon="3.41358">
        <ele>862</ele>
        <time>2020-01-04T19:10:56Z</time>
      </trkpt>
      <trkpt lat="44.09168" lon="3.41356">
        <ele>861</ele>
        <time>2020-01-04T19:10:58Z</time>
      </trkpt>
      <trkpt lat="44.09165" lon="3.41346">
        <ele>859</ele>
        <time>2020-01-04T19:11:00Z</time>
      </trkpt>
      <trkpt lat="44.09163" lon="3.41319">
        <ele>855</ele>
        <time>2020-01-04T19:11:05Z</time>
      </trkpt>
      <trkpt lat="44.09167" lon="3.41254">
        <ele>846</ele>
        <time>2020-01-04T19:11:16Z</time>
      </trkpt>
      <trkpt lat="44.0918" lon="3.41188">
        <ele>836</ele>
        <time>2020-01-04T19:11:27Z</time>
      </trkpt>
      <trkpt lat="44.0919" lon="3.41166">
        <ele>831</ele>
        <time>2020-01-04T19:11:31Z</time>
      </trkpt>
      <trkpt lat="44.09206" lon="3.41185">
        <ele>830</ele>
        <time>2020-01-04T19:11:36Z</time>
      </trkpt>
      <trkpt lat="44.0919" lon="3.41166">
        <ele>831</ele>
        <time>2020-01-04T19:11:41Z</time>
      </trkpt>
      <trkpt lat="44.09191" lon="3.41147">
        <ele>829</ele>
        <time>2020-01-04T19:11:44Z</time>
      </trkpt>
      <trkpt lat="44.09203" lon="3.41084">
        <ele>821</ele>
        <time>2020-01-04T19:11:55Z</time>
      </trkpt>
      <trkpt lat="44.09216" lon="3.4105">
        <ele>816</ele>
        <time>2020-01-04T19:12:02Z</time>
      </trkpt>
      <trkpt lat="44.09222" lon="3.41022">
        <ele>815</ele>
        <time>2020-01-04T19:12:07Z</time>
      </trkpt>
      <trkpt lat="44.09221" lon="3.40993">
        <ele>814</ele>
        <time>2020-01-04T19:12:12Z</time>
      </trkpt>
      <trkpt lat="44.09212" lon="3.40959">
        <ele>813</ele>
        <time>2020-01-04T19:12:18Z</time>
      </trkpt>
      <trkpt lat="44.09193" lon="3.40928">
        <ele>811</ele>
        <time>2020-01-04T19:12:25Z</time>
      </trkpt>
      <trkpt lat="44.09173" lon="3.40903">
        <ele>809</ele>
        <time>2020-01-04T19:12:31Z</time>
      </trkpt>
      <trkpt lat="44.09157" lon="3.40864">
        <ele>805</ele>
        <time>2020-01-04T19:12:38Z</time>
      </trkpt>
      <trkpt lat="44.09141" lon="3.40804">
        <ele>794</ele>
        <time>2020-01-04T19:12:49Z</time>
      </trkpt>
      <trkpt lat="44.09139" lon="3.40752">
        <ele>788</ele>
        <time>2020-01-04T19:12:58Z</time>
      </trkpt>
      <trkpt lat="44.09136" lon="3.40737">
        <ele>784</ele>
        <time>2020-01-04T19:13:00Z</time>
      </trkpt>
      <trkpt lat="44.0913" lon="3.40731">
        <ele>781</ele>
        <time>2020-01-04T19:13:02Z</time>
      </trkpt>
      <trkpt lat="44.09122" lon="3.40731">
        <ele>778</ele>
        <time>2020-01-04T19:13:04Z</time>
      </trkpt>
      <trkpt lat="44.09121" lon="3.40776">
        <ele>782</ele>
        <time>2020-01-04T19:13:12Z</time>
      </trkpt>
      <trkpt lat="44.09126" lon="3.40787">
        <ele>785</ele>
        <time>2020-01-04T19:13:14Z</time>
      </trkpt>
      <trkpt lat="44.09125" lon="3.40835">
        <ele>789</ele>
        <time>2020-01-04T19:13:22Z</time>
      </trkpt>
      <trkpt lat="44.09117" lon="3.4086">
        <ele>787</ele>
        <time>2020-01-04T19:13:26Z</time>
      </trkpt>
      <trkpt lat="44.09103" lon="3.40877">
        <ele>782</ele>
        <time>2020-01-04T19:13:31Z</time>
      </trkpt>
      <trkpt lat="44.09067" lon="3.40891">
        <ele>774</ele>
        <time>2020-01-04T19:13:39Z</time>
      </trkpt>
      <trkpt lat="44.09054" lon="3.40893">
        <ele>774</ele>
        <time>2020-01-04T19:13:43Z</time>
      </trkpt>
      <trkpt lat="44.09019" lon="3.40925">
        <ele>773</ele>
        <time>2020-01-04T19:13:52Z</time>
      </trkpt>
      <trkpt lat="44.09029" lon="3.41061">
        <ele>797</ele>
        <time>2020-01-04T19:14:15Z</time>
      </trkpt>
      <trkpt lat="44.09019" lon="3.40925">
        <ele>773</ele>
        <time>2020-01-04T19:14:38Z</time>
      </trkpt>
      <trkpt lat="44.09002" lon="3.40928">
        <ele>771</ele>
        <time>2020-01-04T19:14:42Z</time>
      </trkpt>
      <trkpt lat="44.0899" lon="3.40918">
        <ele>774</ele>
        <time>2020-01-04T19:14:45Z</time>
      </trkpt>
      <trkpt lat="44.08985" lon="3.40896">
        <ele>776</ele>
        <time>2020-01-04T19:14:49Z</time>
      </trkpt>
      <trkpt lat="44.08985" lon="3.40867">
        <ele>776</ele>
        <time>2020-01-04T19:14:54Z</time>
      </trkpt>
      <trkpt lat="44.08985" lon="3.40885">
        <ele>776</ele>
        <time>2020-01-04T19:14:57Z</time>
      </trkpt>
      <trkpt lat="44.08941" lon="3.40885">
        <ele>795</ele>
        <time>2020-01-04T19:15:07Z</time>
      </trkpt>
      <trkpt lat="44.08985" lon="3.40885">
        <ele>776</ele>
        <time>2020-01-04T19:15:18Z</time>
      </trkpt>
      <trkpt lat="44.08985" lon="3.40867">
        <ele>776</ele>
        <time>2020-01-04T19:15:21Z</time>
      </trkpt>
      <trkpt lat="44.08989" lon="3.40839">
        <ele>774</ele>
        <time>2020-01-04T19:15:26Z</time>
      </trkpt>
      <trkpt lat="44.08989" lon="3.40789">
        <ele>772</ele>
        <time>2020-01-04T19:15:34Z</time>
      </trkpt>
      <trkpt lat="44.08974" lon="3.40761">
        <ele>780</ele>
        <time>2020-01-04T19:15:40Z</time>
      </trkpt>
      <trkpt lat="44.08944" lon="3.40718">
        <ele>796</ele>
        <time>2020-01-04T19:15:50Z</time>
      </trkpt>
      <trkpt lat="44.08904" lon="3.40677">
        <ele>814</ele>
        <time>2020-01-04T19:16:01Z</time>
      </trkpt>
      <trkpt lat="44.08864" lon="3.40606">
        <ele>816</ele>
        <time>2020-01-04T19:16:17Z</time>
      </trkpt>
      <trkpt lat="44.0883" lon="3.40557">
        <ele>818</ele>
        <time>2020-01-04T19:16:28Z</time>
      </trkpt>
      <trkpt lat="44.08807" lon="3.40516">
        <ele>822</ele>
        <time>2020-01-04T19:16:37Z</time>
      </trkpt>
      <trkpt lat="44.08739" lon="3.4034">
        <ele>829</ele>
        <time>2020-01-04T19:17:10Z</time>
      </trkpt>
      <trkpt lat="44.08732" lon="3.40302">
        <ele>827</ele>
        <time>2020-01-04T19:17:17Z</time>
      </trkpt>
      <trkpt lat="44.08728" lon="3.40219">
        <ele>817</ele>
        <time>2020-01-04T19:17:31Z</time>
      </trkpt>
      <trkpt lat="44.08718" lon="3.40193">
        <ele>818</ele>
        <time>2020-01-04T19:17:36Z</time>
      </trkpt>
      <trkpt lat="44.08708" lon="3.40179">
        <ele>821</ele>
        <time>2020-01-04T19:17:39Z</time>
      </trkpt>
      <trkpt lat="44.08682" lon="3.40171">
        <ele>830</ele>
        <time>2020-01-04T19:17:45Z</time>
      </trkpt>
      <trkpt lat="44.08661" lon="3.40186">
        <ele>841</ele>
        <time>2020-01-04T19:17:51Z</time>
      </trkpt>
      <trkpt lat="44.08649" lon="3.40227">
        <ele>852</ele>
        <time>2020-01-04T19:17:58Z</time>
      </trkpt>
      <trkpt lat="44.08647" lon="3.40245">
        <ele>856</ele>
        <time>2020-01-04T19:18:01Z</time>
      </trkpt>
      <trkpt lat="44.08629" lon="3.40322">
        <ele>868</ele>
        <time>2020-01-04T19:18:15Z</time>
      </trkpt>
      <trkpt lat="44.0862" lon="3.40333">
        <ele>869</ele>
        <time>2020-01-04T19:18:18Z</time>
      </trkpt>
      <trkpt lat="44.0861" lon="3.40337">
        <ele>868</ele>
        <time>2020-01-04T19:18:20Z</time>
      </trkpt>
      <trkpt lat="44.08588" lon="3.40323">
        <ele>865</ele>
        <time>2020-01-04T19:18:26Z</time>
      </trkpt>
      <trkpt lat="44.08527" lon="3.40211">
        <ele>867</ele>
        <time>2020-01-04T19:18:49Z</time>
      </trkpt>
      <trkpt lat="44.08498" lon="3.40136">
        <ele>868</ele>
        <time>2020-01-04T19:19:04Z</time>
      </trkpt>
      <trkpt lat="44.08451" lon="3.40055">
        <ele>865</ele>
        <time>2020-01-04T19:19:21Z</time>
      </trkpt>
      <trkpt lat="44.08444" lon="3.40038">
        <ele>863</ele>
        <time>2020-01-04T19:19:24Z</time>
      </trkpt>
      <trkpt lat="44.08427" lon="3.4003">
        <ele>866</ele>
        <time>2020-01-04T19:19:29Z</time>
      </trkpt>
      <trkpt lat="44.0841" lon="3.4006">
        <ele>873</ele>
        <time>2020-01-04T19:19:35Z</time>
      </trkpt>
      <trkpt lat="44.08396" lon="3.40099">
        <ele>878</ele>
        <time>2020-01-04T19:19:42Z</time>
      </trkpt>
      <trkpt lat="44.08362" lon="3.40089">
        <ele>873</ele>
        <time>2020-01-04T19:19:50Z</time>
      </trkpt>
      <trkpt lat="44.0833" lon="3.40083">
        <ele>869</ele>
        <time>2020-01-04T19:19:58Z</time>
      </trkpt>
      <trkpt lat="44.08361" lon="3.40054">
        <ele>867</ele>
        <time>2020-01-04T19:20:07Z</time>
      </trkpt>
      <trkpt lat="44.08329" lon="3.4005">
        <ele>861</ele>
        <time>2020-01-04T19:20:14Z</time>
      </trkpt>
      <trkpt lat="44.08279" lon="3.40054">
        <ele>841</ele>
        <time>2020-01-04T19:20:26Z</time>
      </trkpt>
      <trkpt lat="44.08273" lon="3.40032">
        <ele>829</ele>
        <time>2020-01-04T19:20:30Z</time>
      </trkpt>
      <trkpt lat="44.08239" lon="3.40063">
        <ele>830</ele>
        <time>2020-01-04T19:20:39Z</time>
      </trkpt>
      <trkpt lat="44.08205" lon="3.40101">
        <ele>833</ele>
        <time>2020-01-04T19:20:49Z</time>
      </trkpt>
      <trkpt lat="44.08186" lon="3.40139">
        <ele>833</ele>
        <time>2020-01-04T19:20:57Z</time>
      </trkpt>
      <trkpt lat="44.08156" lon="3.40115">
        <ele>829</ele>
        <time>2020-01-04T19:21:05Z</time>
      </trkpt>
      <trkpt lat="44.08142" lon="3.40171">
        <ele>843</ele>
        <time>2020-01-04T19:21:15Z</time>
      </trkpt>
      <trkpt lat="44.08128" lon="3.40202">
        <ele>849</ele>
        <time>2020-01-04T19:21:21Z</time>
      </trkpt>
      <trkpt lat="44.08068" lon="3.40086">
        <ele>850</ele>
        <time>2020-01-04T19:21:45Z</time>
      </trkpt>
      <trkpt lat="44.08059" lon="3.40062">
        <ele>833</ele>
        <time>2020-01-04T19:21:50Z</time>
      </trkpt>
      <trkpt lat="44.08045" lon="3.40052">
        <ele>828</ele>
        <time>2020-01-04T19:21:54Z</time>
      </trkpt>
      <trkpt lat="44.08028" lon="3.4005">
        <ele>831</ele>
        <time>2020-01-04T19:21:58Z</time>
      </trkpt>
      <trkpt lat="44.08018" lon="3.40053">
        <ele>836</ele>
        <time>2020-01-04T19:22:00Z</time>
      </trkpt>
      <trkpt lat="44.07981" lon="3.40077">
        <ele>856</ele>
        <time>2020-01-04T19:22:10Z</time>
      </trkpt>
      <trkpt lat="44.07963" lon="3.40096">
        <ele>861</ele>
        <time>2020-01-04T19:22:15Z</time>
      </trkpt>
      <trkpt lat="44.07951" lon="3.40103">
        <ele>861</ele>
        <time>2020-01-04T19:22:18Z</time>
      </trkpt>
      <trkpt lat="44.07942" lon="3.40104">
        <ele>860</ele>
        <time>2020-01-04T19:22:20Z</time>
      </trkpt>
      <trkpt lat="44.07937" lon="3.40098">
        <ele>859</ele>
        <time>2020-01-04T19:22:21Z</time>
      </trkpt>
      <trkpt lat="44.07935" lon="3.40087">
        <ele>856</ele>
        <time>2020-01-04T19:22:23Z</time>
      </trkpt>
      <trkpt lat="44.07939" lon="3.40079">
        <ele>854</ele>
        <time>2020-01-04T19:22:25Z</time>
      </trkpt>
      <trkpt lat="44.0795" lon="3.40072">
        <ele>852</ele>
        <time>2020-01-04T19:22:28Z</time>
      </trkpt>
      <trkpt lat="44.07939" lon="3.40079">
        <ele>854</ele>
        <time>2020-01-04T19:22:31Z</time>
      </trkpt>
      <trkpt lat="44.07935" lon="3.40087">
        <ele>856</ele>
        <time>2020-01-04T19:22:32Z</time>
      </trkpt>
      <trkpt lat="44.07937" lon="3.40098">
        <ele>859</ele>
        <time>2020-01-04T19:22:34Z</time>
      </trkpt>
      <trkpt lat="44.07942" lon="3.40104">
        <ele>860</ele>
        <time>2020-01-04T19:22:36Z</time>
      </trkpt>
      <trkpt lat="44.07907" lon="3.40107">
        <ele>859</ele>
        <time>2020-01-04T19:22:44Z</time>
      </trkpt>
      <trkpt lat="44.0788" lon="3.40077">
        <ele>860</ele>
        <time>2020-01-04T19:22:52Z</time>
      </trkpt>
      <trkpt lat="44.07866" lon="3.40079">
        <ele>863</ele>
        <time>2020-01-04T19:22:55Z</time>
      </trkpt>
      <trkpt lat="44.07858" lon="3.40086">
        <ele>865</ele>
        <time>2020-01-04T19:22:57Z</time>
      </trkpt>
      <trkpt lat="44.07846" lon="3.40074">
        <ele>867</ele>
        <time>2020-01-04T19:23:01Z</time>
      </trkpt>
      <trkpt lat="44.07834" lon="3.40042">
        <ele>867</ele>
        <time>2020-01-04T19:23:07Z</time>
      </trkpt>
      <trkpt lat="44.07814" lon="3.40019">
        <ele>871</ele>
        <time>2020-01-04T19:23:13Z</time>
      </trkpt>
      <trkpt lat="44.07779" lon="3.39987">
        <ele>875</ele>
        <time>2020-01-04T19:23:23Z</time>
      </trkpt>
      <trkpt lat="44.0772" lon="3.39943">
        <ele>882</ele>
        <time>2020-01-04T19:23:38Z</time>
      </trkpt>
      <trkpt lat="44.07702" lon="3.39933">
        <ele>885</ele>
        <time>2020-01-04T19:23:43Z</time>
      </trkpt>
      <trkpt lat="44.07709" lon="3.39904">
        <ele>873</ele>
        <time>2020-01-04T19:23:48Z</time>
      </trkpt>
      <trkpt lat="44.07702" lon="3.39933">
        <ele>885</ele>
        <time>2020-01-04T19:23:53Z</time>
      </trkpt>
      <trkpt lat="44.0772" lon="3.39943">
        <ele>882</ele>
        <time>2020-01-04T19:23:58Z</time>
      </trkpt>
      <trkpt lat="44.0767" lon="3.39919">
        <ele>891</ele>
        <time>2020-01-04T19:24:10Z</time>
      </trkpt>
      <trkpt lat="44.07619" lon="3.39912">
        <ele>891</ele>
        <time>2020-01-04T19:24:22Z</time>
      </trkpt>
      <trkpt lat="44.07601" lon="3.3994">
        <ele>898</ele>
        <time>2020-01-04T19:24:28Z</time>
      </trkpt>
      <trkpt lat="44.07581" lon="3.39919">
        <ele>894</ele>
        <time>2020-01-04T19:24:34Z</time>
      </trkpt>
      <trkpt lat="44.07601" lon="3.3994">
        <ele>898</ele>
        <time>2020-01-04T19:24:40Z</time>
      </trkpt>
      <trkpt lat="44.076" lon="3.39945">
        <ele>899</ele>
        <time>2020-01-04T19:24:41Z</time>
      </trkpt>
      <trkpt lat="44.07606" lon="3.39969">
        <ele>904</ele>
        <time>2020-01-04T19:24:45Z</time>
      </trkpt>
      <trkpt lat="44.07626" lon="3.40015">
        <ele>909</ele>
        <time>2020-01-04T19:24:54Z</time>
      </trkpt>
      <trkpt lat="44.07624" lon="3.40036">
        <ele>910</ele>
        <time>2020-01-04T19:24:58Z</time>
      </trkpt>
      <trkpt lat="44.07618" lon="3.40054">
        <ele>913</ele>
        <time>2020-01-04T19:25:01Z</time>
      </trkpt>
      <trkpt lat="44.0762" lon="3.40077">
        <ele>914</ele>
        <time>2020-01-04T19:25:05Z</time>
      </trkpt>
      <trkpt lat="44.07622" lon="3.40084">
        <ele>914</ele>
        <time>2020-01-04T19:25:06Z</time>
      </trkpt>
      <trkpt lat="44.07637" lon="3.40107">
        <ele>910</ele>
        <time>2020-01-04T19:25:12Z</time>
      </trkpt>
      <trkpt lat="44.07639" lon="3.40125">
        <ele>909</ele>
        <time>2020-01-04T19:25:15Z</time>
      </trkpt>
      <trkpt lat="44.07637" lon="3.4014">
        <ele>908</ele>
        <time>2020-01-04T19:25:17Z</time>
      </trkpt>
      <trkpt lat="44.07628" lon="3.40164">
        <ele>909</ele>
        <time>2020-01-04T19:25:22Z</time>
      </trkpt>
      <trkpt lat="44.07595" lon="3.40209">
        <ele>911</ele>
        <time>2020-01-04T19:25:32Z</time>
      </trkpt>
      <trkpt lat="44.07575" lon="3.40246">
        <ele>911</ele>
        <time>2020-01-04T19:25:40Z</time>
      </trkpt>
      <trkpt lat="44.07554" lon="3.40278">
        <ele>908</ele>
        <time>2020-01-04T19:25:47Z</time>
      </trkpt>
      <trkpt lat="44.07538" lon="3.40317">
        <ele>905</ele>
        <time>2020-01-04T19:25:55Z</time>
      </trkpt>
      <trkpt lat="44.07533" lon="3.4038">
        <ele>902</ele>
        <time>2020-01-04T19:26:06Z</time>
      </trkpt>
      <trkpt lat="44.07528" lon="3.40401">
        <ele>902</ele>
        <time>2020-01-04T19:26:09Z</time>
      </trkpt>
      <trkpt lat="44.07532" lon="3.40417">
        <ele>901</ele>
        <time>2020-01-04T19:26:12Z</time>
      </trkpt>
      <trkpt lat="44.07522" lon="3.40435">
        <ele>905</ele>
        <time>2020-01-04T19:26:16Z</time>
      </trkpt>
      <trkpt lat="44.07513" lon="3.40447">
        <ele>908</ele>
        <time>2020-01-04T19:26:19Z</time>
      </trkpt>
      <trkpt lat="44.07503" lon="3.40454">
        <ele>910</ele>
        <time>2020-01-04T19:26:22Z</time>
      </trkpt>
      <trkpt lat="44.075" lon="3.40462">
        <ele>912</ele>
        <time>2020-01-04T19:26:23Z</time>
      </trkpt>
      <trkpt lat="44.07492" lon="3.40505">
        <ele>919</ele>
        <time>2020-01-04T19:26:31Z</time>
      </trkpt>
      <trkpt lat="44.07486" lon="3.4062">
        <ele>930</ele>
        <time>2020-01-04T19:26:50Z</time>
      </trkpt>
      <trkpt lat="44.07479" lon="3.40685">
        <ele>937</ele>
        <time>2020-01-04T19:27:01Z</time>
      </trkpt>
      <trkpt lat="44.0748" lon="3.4071">
        <ele>938</ele>
        <time>2020-01-04T19:27:05Z</time>
      </trkpt>
      <trkpt lat="44.07489" lon="3.40745">
        <ele>937</ele>
        <time>2020-01-04T19:27:11Z</time>
      </trkpt>
      <trkpt lat="44.07439" lon="3.40808">
        <ele>954</ele>
        <time>2020-01-04T19:27:27Z</time>
      </trkpt>
      <trkpt lat="44.07414" lon="3.40836">
        <ele>961</ele>
        <time>2020-01-04T19:27:35Z</time>
      </trkpt>
      <trkpt lat="44.0739" lon="3.40856">
        <ele>962</ele>
        <time>2020-01-04T19:27:41Z</time>
      </trkpt>
      <trkpt lat="44.07359" lon="3.40893">
        <ele>967</ele>
        <time>2020-01-04T19:27:51Z</time>
      </trkpt>
      <trkpt lat="44.07351" lon="3.4091">
        <ele>970</ele>
        <time>2020-01-04T19:27:54Z</time>
      </trkpt>
      <trkpt lat="44.07344" lon="3.4097">
        <ele>986</ele>
        <time>2020-01-04T19:28:04Z</time>
      </trkpt>
      <trkpt lat="44.07331" lon="3.40992">
        <ele>993</ele>
        <time>2020-01-04T19:28:09Z</time>
      </trkpt>
      <trkpt lat="44.07281" lon="3.41052">
        <ele>1007</ele>
        <time>2020-01-04T19:28:24Z</time>
      </trkpt>
      <trkpt lat="44.07239" lon="3.41071">
        <ele>1013</ele>
        <time>2020-01-04T19:28:35Z</time>
      </trkpt>
      <trkpt lat="44.07221" lon="3.41084">
        <ele>1017</ele>
        <time>2020-01-04T19:28:40Z</time>
      </trkpt>
      <trkpt lat="44.07196" lon="3.41084">
        <ele>1016</ele>
        <time>2020-01-04T19:28:45Z</time>
      </trkpt>
      <trkpt lat="44.07192" lon="3.41086">
        <ele>1016</ele>
        <time>2020-01-04T19:28:46Z</time>
      </trkpt>
      <trkpt lat="44.07184" lon="3.41092">
        <ele>1016</ele>
        <time>2020-01-04T19:28:48Z</time>
      </trkpt>
      <trkpt lat="44.07179" lon="3.41109">
        <ele>1017</ele>
        <time>2020-01-04T19:28:52Z</time>
      </trkpt>
      <trkpt lat="44.07176" lon="3.41111">
        <ele>1017</ele>
        <time>2020-01-04T19:28:52Z</time>
      </trkpt>
      <trkpt lat="44.07158" lon="3.41108">
        <ele>1015</ele>
        <time>2020-01-04T19:28:57Z</time>
      </trkpt>
      <trkpt lat="44.07138" lon="3.41116">
        <ele>1012</ele>
        <time>2020-01-04T19:29:01Z</time>
      </trkpt>
      <trkpt lat="44.07129" lon="3.41123">
        <ele>1010</ele>
        <time>2020-01-04T19:29:04Z</time>
      </trkpt>
      <trkpt lat="44.07127" lon="3.41128">
        <ele>1009</ele>
        <time>2020-01-04T19:29:05Z</time>
      </trkpt>
      <trkpt lat="44.07137" lon="3.41144">
        <ele>1010</ele>
        <time>2020-01-04T19:29:08Z</time>
      </trkpt>
      <trkpt lat="44.07125" lon="3.4115">
        <ele>1006</ele>
        <time>2020-01-04T19:29:11Z</time>
      </trkpt>
      <trkpt lat="44.071" lon="3.41154">
        <ele>999</ele>
        <time>2020-01-04T19:29:17Z</time>
      </trkpt>
      <trkpt lat="44.0708" lon="3.41164">
        <ele>992</ele>
        <time>2020-01-04T19:29:22Z</time>
      </trkpt>
      <trkpt lat="44.07079" lon="3.41169">
        <ele>991</ele>
        <time>2020-01-04T19:29:23Z</time>
      </trkpt>
      <trkpt lat="44.07086" lon="3.412">
        <ele>986</ele>
        <time>2020-01-04T19:29:28Z</time>
      </trkpt>
      <trkpt lat="44.07093" lon="3.41214">
        <ele>986</ele>
        <time>2020-01-04T19:29:31Z</time>
      </trkpt>
      <trkpt lat="44.07089" lon="3.41225">
        <ele>983</ele>
        <time>2020-01-04T19:29:33Z</time>
      </trkpt>
      <trkpt lat="44.07087" lon="3.41263">
        <ele>978</ele>
        <time>2020-01-04T19:29:40Z</time>
      </trkpt>
      <trkpt lat="44.07079" lon="3.41273">
        <ele>975</ele>
        <time>2020-01-04T19:29:42Z</time>
      </trkpt>
      <trkpt lat="44.07065" lon="3.41276">
        <ele>971</ele>
        <time>2020-01-04T19:29:46Z</time>
      </trkpt>
      <trkpt lat="44.07036" lon="3.41275">
        <ele>962</ele>
        <time>2020-01-04T19:29:52Z</time>
      </trkpt>
      <trkpt lat="44.0701" lon="3.41268">
        <ele>953</ele>
        <time>2020-01-04T19:29:59Z</time>
      </trkpt>
      <trkpt lat="44.07005" lon="3.41274">
        <ele>952</ele>
        <time>2020-01-04T19:30:00Z</time>
      </trkpt>
      <trkpt lat="44.06994" lon="3.41272">
        <ele>949</ele>
        <time>2020-01-04T19:30:03Z</time>
      </trkpt>
      <trkpt lat="44.06986" lon="3.41283">
        <ele>946</ele>
        <time>2020-01-04T19:30:05Z</time>
      </trkpt>
      <trkpt lat="44.06936" lon="3.41315">
        <ele>929</ele>
        <time>2020-01-04T19:30:18Z</time>
      </trkpt>
      <trkpt lat="44.06913" lon="3.41326">
        <ele>920</ele>
        <time>2020-01-04T19:30:24Z</time>
      </trkpt>
      <trkpt lat="44.06892" lon="3.41342">
        <ele>913</ele>
        <time>2020-01-04T19:30:29Z</time>
      </trkpt>
      <trkpt lat="44.06852" lon="3.41353">
        <ele>901</ele>
        <time>2020-01-04T19:30:39Z</time>
      </trkpt>
      <trkpt lat="44.06846" lon="3.41365">
        <ele>902</ele>
        <time>2020-01-04T19:30:41Z</time>
      </trkpt>
      <trkpt lat="44.06807" lon="3.41403">
        <ele>890</ele>
        <time>2020-01-04T19:30:53Z</time>
      </trkpt>
      <trkpt lat="44.06802" lon="3.41412">
        <ele>888</ele>
        <time>2020-01-04T19:30:54Z</time>
      </trkpt>
      <trkpt lat="44.0679" lon="3.41416">
        <ele>881</ele>
        <time>2020-01-04T19:30:57Z</time>
      </trkpt>
      <trkpt lat="44.06786" lon="3.41432">
        <ele>881</ele>
        <time>2020-01-04T19:31:00Z</time>
      </trkpt>
      <trkpt lat="44.06786" lon="3.41467">
        <ele>886</ele>
        <time>2020-01-04T19:31:06Z</time>
      </trkpt>
      <trkpt lat="44.06781" lon="3.41516">
        <ele>889</ele>
        <time>2020-01-04T19:31:14Z</time>
      </trkpt>
      <trkpt lat="44.06775" lon="3.41541">
        <ele>888</ele>
        <time>2020-01-04T19:31:19Z</time>
      </trkpt>
      <trkpt lat="44.06766" lon="3.41606">
        <ele>890</ele>
        <time>2020-01-04T19:31:30Z</time>
      </trkpt>
      <trkpt lat="44.06749" lon="3.41632">
        <ele>880</ele>
        <time>2020-01-04T19:31:36Z</time>
      </trkpt>
      <trkpt lat="44.06747" lon="3.41682">
        <ele>884</ele>
        <time>2020-01-04T19:31:44Z</time>
      </trkpt>
      <trkpt lat="44.06754" lon="3.41694">
        <ele>890</ele>
        <time>2020-01-04T19:31:47Z</time>
      </trkpt>
      <trkpt lat="44.06754" lon="3.41699">
        <ele>891</ele>
        <time>2020-01-04T19:31:48Z</time>
      </trkpt>
      <trkpt lat="44.06745" lon="3.41718">
        <ele>888</ele>
        <time>2020-01-04T19:31:51Z</time>
      </trkpt>
      <trkpt lat="44.06733" lon="3.41769">
        <ele>893</ele>
        <time>2020-01-04T19:32:00Z</time>
      </trkpt>
      <trkpt lat="44.06729" lon="3.41775">
        <ele>894</ele>
        <time>2020-01-04T19:32:02Z</time>
      </trkpt>
      <trkpt lat="44.06716" lon="3.41777">
        <ele>889</ele>
        <time>2020-01-04T19:32:05Z</time>
      </trkpt>
      <trkpt lat="44.06695" lon="3.41797">
        <ele>888</ele>
        <time>2020-01-04T19:32:11Z</time>
      </trkpt>
      <trkpt lat="44.06685" lon="3.41803">
        <ele>887</ele>
        <time>2020-01-04T19:32:13Z</time>
      </trkpt>
      <trkpt lat="44.06669" lon="3.41807">
        <ele>882</ele>
        <time>2020-01-04T19:32:17Z</time>
      </trkpt>
      <trkpt lat="44.0662" lon="3.41811">
        <ele>872</ele>
        <time>2020-01-04T19:32:29Z</time>
      </trkpt>
      <trkpt lat="44.06611" lon="3.41814">
        <ele>870</ele>
        <time>2020-01-04T19:32:31Z</time>
      </trkpt>
      <trkpt lat="44.06593" lon="3.4183">
        <ele>871</ele>
        <time>2020-01-04T19:32:36Z</time>
      </trkpt>
      <trkpt lat="44.06575" lon="3.41869">
        <ele>873</ele>
        <time>2020-01-04T19:32:44Z</time>
      </trkpt>
      <trkpt lat="44.06534" lon="3.4207">
        <ele>881</ele>
        <time>2020-01-04T19:33:19Z</time>
      </trkpt>
      <trkpt lat="44.06516" lon="3.42113">
        <ele>875</ele>
        <time>2020-01-04T19:33:27Z</time>
      </trkpt>
      <trkpt lat="44.06501" lon="3.42158">
        <ele>870</ele>
        <time>2020-01-04T19:33:35Z</time>
      </trkpt>
      <trkpt lat="44.06502" lon="3.42182">
        <ele>869</ele>
        <time>2020-01-04T19:33:39Z</time>
      </trkpt>
      <trkpt lat="44.06512" lon="3.4221">
        <ele>871</ele>
        <time>2020-01-04T19:33:45Z</time>
      </trkpt>
      <trkpt lat="44.06552" lon="3.42277">
        <ele>873</ele>
        <time>2020-01-04T19:33:59Z</time>
      </trkpt>
      <trkpt lat="44.06568" lon="3.42292">
        <ele>872</ele>
        <time>2020-01-04T19:34:04Z</time>
      </trkpt>
      <trkpt lat="44.0658" lon="3.42299">
        <ele>873</ele>
        <time>2020-01-04T19:34:07Z</time>
      </trkpt>
      <trkpt lat="44.0663" lon="3.42314">
        <ele>876</ele>
        <time>2020-01-04T19:34:19Z</time>
      </trkpt>
      <trkpt lat="44.06649" lon="3.42307">
        <ele>882</ele>
        <time>2020-01-04T19:34:23Z</time>
      </trkpt>
      <trkpt lat="44.06661" lon="3.42306">
        <ele>884</ele>
        <time>2020-01-04T19:34:26Z</time>
      </trkpt>
      <trkpt lat="44.06671" lon="3.42314">
        <ele>883</ele>
        <time>2020-01-04T19:34:29Z</time>
      </trkpt>
      <trkpt lat="44.06681" lon="3.42332">
        <ele>880</ele>
        <time>2020-01-04T19:34:33Z</time>
      </trkpt>
      <trkpt lat="44.06696" lon="3.42368">
        <ele>874</ele>
        <time>2020-01-04T19:34:40Z</time>
      </trkpt>
      <trkpt lat="44.06721" lon="3.42389">
        <ele>877</ele>
        <time>2020-01-04T19:34:46Z</time>
      </trkpt>
      <trkpt lat="44.06733" lon="3.42403">
        <ele>877</ele>
        <time>2020-01-04T19:34:50Z</time>
      </trkpt>
      <trkpt lat="44.06742" lon="3.42438">
        <ele>875</ele>
        <time>2020-01-04T19:34:56Z</time>
      </trkpt>
      <trkpt lat="44.0675" lon="3.42457">
        <ele>876</ele>
        <time>2020-01-04T19:35:00Z</time>
      </trkpt>
      <trkpt lat="44.06752" lon="3.4247">
        <ele>876</ele>
        <time>2020-01-04T19:35:02Z</time>
      </trkpt>
      <trkpt lat="44.06741" lon="3.42545">
        <ele>876</ele>
        <time>2020-01-04T19:35:15Z</time>
      </trkpt>
      <trkpt lat="44.06736" lon="3.42557">
        <ele>877</ele>
        <time>2020-01-04T19:35:17Z</time>
      </trkpt>
      <trkpt lat="44.06715" lon="3.42584">
        <ele>875</ele>
        <time>2020-01-04T19:35:24Z</time>
      </trkpt>
      <trkpt lat="44.067" lon="3.42597">
        <ele>874</ele>
        <time>2020-01-04T19:35:28Z</time>
      </trkpt>
      <trkpt lat="44.06689" lon="3.42601">
        <ele>873</ele>
        <time>2020-01-04T19:35:31Z</time>
      </trkpt>
      <trkpt lat="44.06649" lon="3.42611">
        <ele>866</ele>
        <time>2020-01-04T19:35:40Z</time>
      </trkpt>
      <trkpt lat="44.06626" lon="3.42611">
        <ele>862</ele>
        <time>2020-01-04T19:35:46Z</time>
      </trkpt>
      <trkpt lat="44.06609" lon="3.42615">
        <ele>859</ele>
        <time>2020-01-04T19:35:50Z</time>
      </trkpt>
      <trkpt lat="44.066" lon="3.42625">
        <ele>860</ele>
        <time>2020-01-04T19:35:52Z</time>
      </trkpt>
      <trkpt lat="44.06589" lon="3.42678">
        <ele>865</ele>
        <time>2020-01-04T19:36:02Z</time>
      </trkpt>
      <trkpt lat="44.0659" lon="3.42699">
        <ele>865</ele>
        <time>2020-01-04T19:36:05Z</time>
      </trkpt>
      <trkpt lat="44.06596" lon="3.42732">
        <ele>866</ele>
        <time>2020-01-04T19:36:11Z</time>
      </trkpt>
      <trkpt lat="44.06596" lon="3.42836">
        <ele>868</ele>
        <time>2020-01-04T19:36:28Z</time>
      </trkpt>
      <trkpt lat="44.06593" lon="3.42846">
        <ele>868</ele>
        <time>2020-01-04T19:36:30Z</time>
      </trkpt>
      <trkpt lat="44.06553" lon="3.42901">
        <ele>857</ele>
        <time>2020-01-04T19:36:43Z</time>
      </trkpt>
      <trkpt lat="44.06544" lon="3.42925">
        <ele>854</ele>
        <time>2020-01-04T19:36:48Z</time>
      </trkpt>
      <trkpt lat="44.06544" lon="3.4294">
        <ele>854</ele>
        <time>2020-01-04T19:36:50Z</time>
      </trkpt>
      <trkpt lat="44.0655" lon="3.42972">
        <ele>856</ele>
        <time>2020-01-04T19:36:56Z</time>
      </trkpt>
      <trkpt lat="44.06565" lon="3.43015">
        <ele>860</ele>
        <time>2020-01-04T19:37:04Z</time>
      </trkpt>
      <trkpt lat="44.06565" lon="3.43045">
        <ele>858</ele>
        <time>2020-01-04T19:37:09Z</time>
      </trkpt>
      <trkpt lat="44.06559" lon="3.43097">
        <ele>850</ele>
        <time>2020-01-04T19:37:18Z</time>
      </trkpt>
      <trkpt lat="44.06566" lon="3.43109">
        <ele>850</ele>
        <time>2020-01-04T19:37:20Z</time>
      </trkpt>
      <trkpt lat="44.06572" lon="3.43113">
        <ele>851</ele>
        <time>2020-01-04T19:37:22Z</time>
      </trkpt>
      <trkpt lat="44.06596" lon="3.43121">
        <ele>853</ele>
        <time>2020-01-04T19:37:28Z</time>
      </trkpt>
      <trkpt lat="44.06615" lon="3.43119">
        <ele>855</ele>
        <time>2020-01-04T19:37:32Z</time>
      </trkpt>
      <trkpt lat="44.06634" lon="3.43112">
        <ele>857</ele>
        <time>2020-01-04T19:37:37Z</time>
      </trkpt>
      <trkpt lat="44.0664" lon="3.43112">
        <ele>858</ele>
        <time>2020-01-04T19:37:38Z</time>
      </trkpt>
      <trkpt lat="44.06649" lon="3.43116">
        <ele>858</ele>
        <time>2020-01-04T19:37:40Z</time>
      </trkpt>
      <trkpt lat="44.06653" lon="3.43122">
        <ele>857</ele>
        <time>2020-01-04T19:37:42Z</time>
      </trkpt>
      <trkpt lat="44.06664" lon="3.43154">
        <ele>852</ele>
        <time>2020-01-04T19:37:48Z</time>
      </trkpt>
      <trkpt lat="44.06668" lon="3.43159">
        <ele>851</ele>
        <time>2020-01-04T19:37:49Z</time>
      </trkpt>
      <trkpt lat="44.0668" lon="3.43166">
        <ele>850</ele>
        <time>2020-01-04T19:37:52Z</time>
      </trkpt>
      <trkpt lat="44.06691" lon="3.43168">
        <ele>849</ele>
        <time>2020-01-04T19:37:55Z</time>
      </trkpt>
      <trkpt lat="44.0671" lon="3.43166">
        <ele>849</ele>
        <time>2020-01-04T19:37:59Z</time>
      </trkpt>
      <trkpt lat="44.06719" lon="3.4316">
        <ele>850</ele>
        <time>2020-01-04T19:38:01Z</time>
      </trkpt>
      <trkpt lat="44.06735" lon="3.4314">
        <ele>852</ele>
        <time>2020-01-04T19:38:06Z</time>
      </trkpt>
      <trkpt lat="44.06751" lon="3.43103">
        <ele>856</ele>
        <time>2020-01-04T19:38:14Z</time>
      </trkpt>
      <trkpt lat="44.06757" lon="3.43097">
        <ele>858</ele>
        <time>2020-01-04T19:38:15Z</time>
      </trkpt>
      <trkpt lat="44.06764" lon="3.43094">
        <ele>859</ele>
        <time>2020-01-04T19:38:17Z</time>
      </trkpt>
      <trkpt lat="44.06771" lon="3.43099">
        <ele>860</ele>
        <time>2020-01-04T19:38:19Z</time>
      </trkpt>
      <trkpt lat="44.06791" lon="3.43141">
        <ele>859</ele>
        <time>2020-01-04T19:38:27Z</time>
      </trkpt>
      <trkpt lat="44.06808" lon="3.43202">
        <ele>857</ele>
        <time>2020-01-04T19:38:38Z</time>
      </trkpt>
      <trkpt lat="44.06808" lon="3.43217">
        <ele>856</ele>
        <time>2020-01-04T19:38:41Z</time>
      </trkpt>
      <trkpt lat="44.06807" lon="3.43223">
        <ele>855</ele>
        <time>2020-01-04T19:38:42Z</time>
      </trkpt>
      <trkpt lat="44.06782" lon="3.43263">
        <ele>847</ele>
        <time>2020-01-04T19:38:51Z</time>
      </trkpt>
      <trkpt lat="44.06756" lon="3.43353">
        <ele>848</ele>
        <time>2020-01-04T19:39:07Z</time>
      </trkpt>
      <trkpt lat="44.06748" lon="3.43395">
        <ele>847</ele>
        <time>2020-01-04T19:39:14Z</time>
      </trkpt>
      <trkpt lat="44.06747" lon="3.43428">
        <ele>848</ele>
        <time>2020-01-04T19:39:20Z</time>
      </trkpt>
      <trkpt lat="44.06752" lon="3.43479">
        <ele>848</ele>
        <time>2020-01-04T19:39:29Z</time>
      </trkpt>
      <trkpt lat="44.06751" lon="3.4351">
        <ele>846</ele>
        <time>2020-01-04T19:39:34Z</time>
      </trkpt>
      <trkpt lat="44.06756" lon="3.43553">
        <ele>844</ele>
        <time>2020-01-04T19:39:41Z</time>
      </trkpt>
      <trkpt lat="44.06764" lon="3.4357">
        <ele>845</ele>
        <time>2020-01-04T19:39:44Z</time>
      </trkpt>
      <trkpt lat="44.06775" lon="3.43579">
        <ele>846</ele>
        <time>2020-01-04T19:39:47Z</time>
      </trkpt>
      <trkpt lat="44.06803" lon="3.43595">
        <ele>851</ele>
        <time>2020-01-04T19:39:55Z</time>
      </trkpt>
      <trkpt lat="44.06818" lon="3.43618">
        <ele>852</ele>
        <time>2020-01-04T19:40:00Z</time>
      </trkpt>
      <trkpt lat="44.06824" lon="3.43621">
        <ele>852</ele>
        <time>2020-01-04T19:40:01Z</time>
      </trkpt>
      <trkpt lat="44.0687" lon="3.43629">
        <ele>857</ele>
        <time>2020-01-04T19:40:12Z</time>
      </trkpt>
      <trkpt lat="44.06889" lon="3.43626">
        <ele>860</ele>
        <time>2020-01-04T19:40:17Z</time>
      </trkpt>
      <trkpt lat="44.06897" lon="3.43627">
        <ele>861</ele>
        <time>2020-01-04T19:40:18Z</time>
      </trkpt>
      <trkpt lat="44.06946" lon="3.43638">
        <ele>865</ele>
        <time>2020-01-04T19:40:30Z</time>
      </trkpt>
      <trkpt lat="44.06971" lon="3.43637">
        <ele>868</ele>
        <time>2020-01-04T19:40:36Z</time>
      </trkpt>
      <trkpt lat="44.06979" lon="3.43641">
        <ele>869</ele>
        <time>2020-01-04T19:40:38Z</time>
      </trkpt>
      <trkpt lat="44.06982" lon="3.43651">
        <ele>868</ele>
        <time>2020-01-04T19:40:40Z</time>
      </trkpt>
      <trkpt lat="44.06956" lon="3.43695">
        <ele>868</ele>
        <time>2020-01-04T19:40:49Z</time>
      </trkpt>
      <trkpt lat="44.06945" lon="3.43708">
        <ele>870</ele>
        <time>2020-01-04T19:40:53Z</time>
      </trkpt>
      <trkpt lat="44.06918" lon="3.43726">
        <ele>869</ele>
        <time>2020-01-04T19:41:00Z</time>
      </trkpt>
      <trkpt lat="44.06891" lon="3.43737">
        <ele>868</ele>
        <time>2020-01-04T19:41:06Z</time>
      </trkpt>
      <trkpt lat="44.06818" lon="3.4376">
        <ele>863</ele>
        <time>2020-01-04T19:41:24Z</time>
      </trkpt>
      <trkpt lat="44.06806" lon="3.43767">
        <ele>862</ele>
        <time>2020-01-04T19:41:27Z</time>
      </trkpt>
      <trkpt lat="44.06791" lon="3.4378">
        <ele>861</ele>
        <time>2020-01-04T19:41:31Z</time>
      </trkpt>
      <trkpt lat="44.06783" lon="3.43806">
        <ele>862</ele>
        <time>2020-01-04T19:41:35Z</time>
      </trkpt>
      <trkpt lat="44.06781" lon="3.43833">
        <ele>865</ele>
        <time>2020-01-04T19:41:40Z</time>
      </trkpt>
      <trkpt lat="44.06814" lon="3.43908">
        <ele>876</ele>
        <time>2020-01-04T19:41:55Z</time>
      </trkpt>
      <trkpt lat="44.06837" lon="3.43933">
        <ele>885</ele>
        <time>2020-01-04T19:42:02Z</time>
      </trkpt>
      <trkpt lat="44.06844" lon="3.43948">
        <ele>888</ele>
        <time>2020-01-04T19:42:05Z</time>
      </trkpt>
      <trkpt lat="44.06847" lon="3.43957">
        <ele>889</ele>
        <time>2020-01-04T19:42:06Z</time>
      </trkpt>
      <trkpt lat="44.06847" lon="3.43975">
        <ele>890</ele>
        <time>2020-01-04T19:42:09Z</time>
      </trkpt>
      <trkpt lat="44.06841" lon="3.43982">
        <ele>889</ele>
        <time>2020-01-04T19:42:11Z</time>
      </trkpt>
      <trkpt lat="44.06837" lon="3.43983">
        <ele>889</ele>
        <time>2020-01-04T19:42:12Z</time>
      </trkpt>
      <trkpt lat="44.06813" lon="3.43984">
        <ele>885</ele>
        <time>2020-01-04T19:42:18Z</time>
      </trkpt>
      <trkpt lat="44.06781" lon="3.43989">
        <ele>881</ele>
        <time>2020-01-04T19:42:25Z</time>
      </trkpt>
      <trkpt lat="44.06735" lon="3.43991">
        <ele>874</ele>
        <time>2020-01-04T19:42:36Z</time>
      </trkpt>
      <trkpt lat="44.0669" lon="3.44021">
        <ele>873</ele>
        <time>2020-01-04T19:42:48Z</time>
      </trkpt>
      <trkpt lat="44.06663" lon="3.44054">
        <ele>873</ele>
        <time>2020-01-04T19:42:56Z</time>
      </trkpt>
      <trkpt lat="44.06659" lon="3.44076">
        <ele>877</ele>
        <time>2020-01-04T19:43:00Z</time>
      </trkpt>
      <trkpt lat="44.06664" lon="3.44109">
        <ele>883</ele>
        <time>2020-01-04T19:43:05Z</time>
      </trkpt>
      <trkpt lat="44.06658" lon="3.44127">
        <ele>884</ele>
        <time>2020-01-04T19:43:09Z</time>
      </trkpt>
      <trkpt lat="44.06649" lon="3.44132">
        <ele>883</ele>
        <time>2020-01-04T19:43:11Z</time>
      </trkpt>
      <trkpt lat="44.06632" lon="3.44135">
        <ele>879</ele>
        <time>2020-01-04T19:43:15Z</time>
      </trkpt>
      <trkpt lat="44.06621" lon="3.44142">
        <ele>878</ele>
        <time>2020-01-04T19:43:18Z</time>
      </trkpt>
      <trkpt lat="44.06589" lon="3.44177">
        <ele>877</ele>
        <time>2020-01-04T19:43:27Z</time>
      </trkpt>
      <trkpt lat="44.06575" lon="3.44197">
        <ele>876</ele>
        <time>2020-01-04T19:43:32Z</time>
      </trkpt>
      <trkpt lat="44.06573" lon="3.44208">
        <ele>876</ele>
        <time>2020-01-04T19:43:34Z</time>
      </trkpt>
      <trkpt lat="44.06588" lon="3.44231">
        <ele>882</ele>
        <time>2020-01-04T19:43:39Z</time>
      </trkpt>
      <trkpt lat="44.0659" lon="3.44257">
        <ele>885</ele>
        <time>2020-01-04T19:43:44Z</time>
      </trkpt>
      <trkpt lat="44.06579" lon="3.44323">
        <ele>885</ele>
        <time>2020-01-04T19:43:55Z</time>
      </trkpt>
      <trkpt lat="44.06564" lon="3.4439">
        <ele>887</ele>
        <time>2020-01-04T19:44:07Z</time>
      </trkpt>
      <trkpt lat="44.06558" lon="3.44434">
        <ele>890</ele>
        <time>2020-01-04T19:44:14Z</time>
      </trkpt>
      <trkpt lat="44.06551" lon="3.44454">
        <ele>891</ele>
        <time>2020-01-04T19:44:18Z</time>
      </trkpt>
      <trkpt lat="44.06543" lon="3.44461">
        <ele>891</ele>
        <time>2020-01-04T19:44:20Z</time>
      </trkpt>
      <trkpt lat="44.06531" lon="3.44464">
        <ele>891</ele>
        <time>2020-01-04T19:44:23Z</time>
      </trkpt>
      <trkpt lat="44.06526" lon="3.44489">
        <ele>893</ele>
        <time>2020-01-04T19:44:27Z</time>
      </trkpt>
      <trkpt lat="44.0652" lon="3.44495">
        <ele>893</ele>
        <time>2020-01-04T19:44:29Z</time>
      </trkpt>
      <trkpt lat="44.06511" lon="3.44497">
        <ele>893</ele>
        <time>2020-01-04T19:44:31Z</time>
      </trkpt>
      <trkpt lat="44.06509" lon="3.44522">
        <ele>894</ele>
        <time>2020-01-04T19:44:35Z</time>
      </trkpt>
      <trkpt lat="44.06512" lon="3.44539">
        <ele>895</ele>
        <time>2020-01-04T19:44:38Z</time>
      </trkpt>
      <trkpt lat="44.06523" lon="3.44554">
        <ele>896</ele>
        <time>2020-01-04T19:44:42Z</time>
      </trkpt>
      <trkpt lat="44.06536" lon="3.44554">
        <ele>896</ele>
        <time>2020-01-04T19:44:45Z</time>
      </trkpt>
      <trkpt lat="44.06555" lon="3.44559">
        <ele>897</ele>
        <time>2020-01-04T19:44:50Z</time>
      </trkpt>
      <trkpt lat="44.06564" lon="3.44567">
        <ele>897</ele>
        <time>2020-01-04T19:44:52Z</time>
      </trkpt>
      <trkpt lat="44.06584" lon="3.446">
        <ele>897</ele>
        <time>2020-01-04T19:44:59Z</time>
      </trkpt>
      <trkpt lat="44.06588" lon="3.44624">
        <ele>897</ele>
        <time>2020-01-04T19:45:03Z</time>
      </trkpt>
      <trkpt lat="44.06668" lon="3.44647">
        <ele>903</ele>
        <time>2020-01-04T19:45:22Z</time>
      </trkpt>
      <trkpt lat="44.06726" lon="3.44648">
        <ele>909</ele>
        <time>2020-01-04T19:45:36Z</time>
      </trkpt>
      <trkpt lat="44.06742" lon="3.44651">
        <ele>910</ele>
        <time>2020-01-04T19:45:40Z</time>
      </trkpt>
      <trkpt lat="44.06767" lon="3.44665">
        <ele>913</ele>
        <time>2020-01-04T19:45:46Z</time>
      </trkpt>
      <trkpt lat="44.06828" lon="3.44709">
        <ele>919</ele>
        <time>2020-01-04T19:46:02Z</time>
      </trkpt>
      <trkpt lat="44.06841" lon="3.44723">
        <ele>920</ele>
        <time>2020-01-04T19:46:06Z</time>
      </trkpt>
      <trkpt lat="44.06845" lon="3.44734">
        <ele>920</ele>
        <time>2020-01-04T19:46:08Z</time>
      </trkpt>
      <trkpt lat="44.06845" lon="3.44763">
        <ele>919</ele>
        <time>2020-01-04T19:46:13Z</time>
      </trkpt>
      <trkpt lat="44.06839" lon="3.44802">
        <ele>919</ele>
        <time>2020-01-04T19:46:20Z</time>
      </trkpt>
      <trkpt lat="44.06839" lon="3.44809">
        <ele>919</ele>
        <time>2020-01-04T19:46:21Z</time>
      </trkpt>
      <trkpt lat="44.06845" lon="3.44827">
        <ele>920</ele>
        <time>2020-01-04T19:46:24Z</time>
      </trkpt>
      <trkpt lat="44.06863" lon="3.44851">
        <ele>918</ele>
        <time>2020-01-04T19:46:30Z</time>
      </trkpt>
      <trkpt lat="44.06897" lon="3.44889">
        <ele>916</ele>
        <time>2020-01-04T19:46:40Z</time>
      </trkpt>
      <trkpt lat="44.06973" lon="3.44955">
        <ele>918</ele>
        <time>2020-01-04T19:47:01Z</time>
      </trkpt>
      <trkpt lat="44.07" lon="3.44966">
        <ele>920</ele>
        <time>2020-01-04T19:47:08Z</time>
      </trkpt>
      <trkpt lat="44.07019" lon="3.4497">
        <ele>922</ele>
        <time>2020-01-04T19:47:12Z</time>
      </trkpt>
      <trkpt lat="44.07034" lon="3.44968">
        <ele>924</ele>
        <time>2020-01-04T19:47:16Z</time>
      </trkpt>
      <trkpt lat="44.07112" lon="3.44944">
        <ele>938</ele>
        <time>2020-01-04T19:47:34Z</time>
      </trkpt>
      <trkpt lat="44.07129" lon="3.44941">
        <ele>940</ele>
        <time>2020-01-04T19:47:38Z</time>
      </trkpt>
      <trkpt lat="44.07139" lon="3.44943">
        <ele>941</ele>
        <time>2020-01-04T19:47:41Z</time>
      </trkpt>
      <trkpt lat="44.07146" lon="3.4495">
        <ele>942</ele>
        <time>2020-01-04T19:47:43Z</time>
      </trkpt>
      <trkpt lat="44.07149" lon="3.44962">
        <ele>942</ele>
        <time>2020-01-04T19:47:45Z</time>
      </trkpt>
      <trkpt lat="44.07148" lon="3.44976">
        <ele>942</ele>
        <time>2020-01-04T19:47:47Z</time>
      </trkpt>
      <trkpt lat="44.07125" lon="3.45011">
        <ele>937</ele>
        <time>2020-01-04T19:47:55Z</time>
      </trkpt>
      <trkpt lat="44.07082" lon="3.45054">
        <ele>929</ele>
        <time>2020-01-04T19:48:07Z</time>
      </trkpt>
      <trkpt lat="44.0705" lon="3.45105">
        <ele>928</ele>
        <time>2020-01-04T19:48:19Z</time>
      </trkpt>
      <trkpt lat="44.07021" lon="3.45128">
        <ele>925</ele>
        <time>2020-01-04T19:48:27Z</time>
      </trkpt>
      <trkpt lat="44.06984" lon="3.45148">
        <ele>920</ele>
        <time>2020-01-04T19:48:36Z</time>
      </trkpt>
      <trkpt lat="44.06976" lon="3.45156">
        <ele>919</ele>
        <time>2020-01-04T19:48:38Z</time>
      </trkpt>
      <trkpt lat="44.0697" lon="3.45168">
        <ele>920</ele>
        <time>2020-01-04T19:48:41Z</time>
      </trkpt>
      <trkpt lat="44.06969" lon="3.45183">
        <ele>918</ele>
        <time>2020-01-04T19:48:43Z</time>
      </trkpt>
      <trkpt lat="44.06971" lon="3.45191">
        <ele>918</ele>
        <time>2020-01-04T19:48:45Z</time>
      </trkpt>
      <trkpt lat="44.06979" lon="3.452">
        <ele>919</ele>
        <time>2020-01-04T19:48:47Z</time>
      </trkpt>
      <trkpt lat="44.06985" lon="3.45204">
        <ele>920</ele>
        <time>2020-01-04T19:48:49Z</time>
      </trkpt>
      <trkpt lat="44.06992" lon="3.45205">
        <ele>921</ele>
        <time>2020-01-04T19:48:50Z</time>
      </trkpt>
      <trkpt lat="44.0703" lon="3.45205">
        <ele>928</ele>
        <time>2020-01-04T19:48:59Z</time>
      </trkpt>
      <trkpt lat="44.07061" lon="3.45195">
        <ele>935</ele>
        <time>2020-01-04T19:49:06Z</time>
      </trkpt>
      <trkpt lat="44.07094" lon="3.45194">
        <ele>940</ele>
        <time>2020-01-04T19:49:14Z</time>
      </trkpt>
      <trkpt lat="44.07156" lon="3.45186">
        <ele>949</ele>
        <time>2020-01-04T19:49:29Z</time>
      </trkpt>
      <trkpt lat="44.07167" lon="3.45192">
        <ele>950</ele>
        <time>2020-01-04T19:49:32Z</time>
      </trkpt>
      <trkpt lat="44.07175" lon="3.45204">
        <ele>951</ele>
        <time>2020-01-04T19:49:34Z</time>
      </trkpt>
      <trkpt lat="44.07182" lon="3.4523">
        <ele>949</ele>
        <time>2020-01-04T19:49:39Z</time>
      </trkpt>
      <trkpt lat="44.07183" lon="3.45272">
        <ele>949</ele>
        <time>2020-01-04T19:49:46Z</time>
      </trkpt>
      <trkpt lat="44.07097" lon="3.45454">
        <ele>948</ele>
        <time>2020-01-04T19:50:23Z</time>
      </trkpt>
      <trkpt lat="44.07085" lon="3.45515">
        <ele>951</ele>
        <time>2020-01-04T19:50:33Z</time>
      </trkpt>
      <trkpt lat="44.07055" lon="3.45591">
        <ele>954</ele>
        <time>2020-01-04T19:50:48Z</time>
      </trkpt>
      <trkpt lat="44.07047" lon="3.45632">
        <ele>960</ele>
        <time>2020-01-04T19:50:55Z</time>
      </trkpt>
      <trkpt lat="44.07044" lon="3.45642">
        <ele>961</ele>
        <time>2020-01-04T19:50:57Z</time>
      </trkpt>
      <trkpt lat="44.07039" lon="3.45649">
        <ele>961</ele>
        <time>2020-01-04T19:50:58Z</time>
      </trkpt>
      <trkpt lat="44.0703" lon="3.4566">
        <ele>962</ele>
        <time>2020-01-04T19:51:01Z</time>
      </trkpt>
      <trkpt lat="44.06999" lon="3.45686">
        <ele>963</ele>
        <time>2020-01-04T19:51:10Z</time>
      </trkpt>
      <trkpt lat="44.06982" lon="3.45694">
        <ele>965</ele>
        <time>2020-01-04T19:51:14Z</time>
      </trkpt>
      <trkpt lat="44.06967" lon="3.45692">
        <ele>964</ele>
        <time>2020-01-04T19:51:17Z</time>
      </trkpt>
      <trkpt lat="44.06944" lon="3.45683">
        <ele>961</ele>
        <time>2020-01-04T19:51:23Z</time>
      </trkpt>
      <trkpt lat="44.06923" lon="3.45679">
        <ele>959</ele>
        <time>2020-01-04T19:51:28Z</time>
      </trkpt>
      <trkpt lat="44.06886" lon="3.45677">
        <ele>953</ele>
        <time>2020-01-04T19:51:36Z</time>
      </trkpt>
      <trkpt lat="44.06874" lon="3.4568">
        <ele>952</ele>
        <time>2020-01-04T19:51:39Z</time>
      </trkpt>
      <trkpt lat="44.06867" lon="3.45685">
        <ele>952</ele>
        <time>2020-01-04T19:51:41Z</time>
      </trkpt>
      <trkpt lat="44.06857" lon="3.45694">
        <ele>954</ele>
        <time>2020-01-04T19:51:44Z</time>
      </trkpt>
      <trkpt lat="44.06819" lon="3.4574">
        <ele>959</ele>
        <time>2020-01-04T19:51:56Z</time>
      </trkpt>
      <trkpt lat="44.06776" lon="3.45799">
        <ele>964</ele>
        <time>2020-01-04T19:52:10Z</time>
      </trkpt>
      <trkpt lat="44.06726" lon="3.45861">
        <ele>965</ele>
        <time>2020-01-04T19:52:25Z</time>
      </trkpt>
      <trkpt lat="44.06704" lon="3.45893">
        <ele>964</ele>
        <time>2020-01-04T19:52:33Z</time>
      </trkpt>
      <trkpt lat="44.06698" lon="3.45908">
        <ele>964</ele>
        <time>2020-01-04T19:52:36Z</time>
      </trkpt>
      <trkpt lat="44.06697" lon="3.45925">
        <ele>966</ele>
        <time>2020-01-04T19:52:39Z</time>
      </trkpt>
      <trkpt lat="44.06707" lon="3.45977">
        <ele>972</ele>
        <time>2020-01-04T19:52:48Z</time>
      </trkpt>
      <trkpt lat="44.06708" lon="3.45995">
        <ele>973</ele>
        <time>2020-01-04T19:52:51Z</time>
      </trkpt>
      <trkpt lat="44.067" lon="3.46053">
        <ele>972</ele>
        <time>2020-01-04T19:53:01Z</time>
      </trkpt>
      <trkpt lat="44.06699" lon="3.46115">
        <ele>972</ele>
        <time>2020-01-04T19:53:11Z</time>
      </trkpt>
      <trkpt lat="44.06691" lon="3.46158">
        <ele>968</ele>
        <time>2020-01-04T19:53:18Z</time>
      </trkpt>
      <trkpt lat="44.06693" lon="3.46183">
        <ele>966</ele>
        <time>2020-01-04T19:53:23Z</time>
      </trkpt>
      <trkpt lat="44.06697" lon="3.46191">
        <ele>966</ele>
        <time>2020-01-04T19:53:24Z</time>
      </trkpt>
      <trkpt lat="44.06702" lon="3.46198">
        <ele>966</ele>
        <time>2020-01-04T19:53:26Z</time>
      </trkpt>
      <trkpt lat="44.06714" lon="3.46203">
        <ele>969</ele>
        <time>2020-01-04T19:53:29Z</time>
      </trkpt>
      <trkpt lat="44.06732" lon="3.46199">
        <ele>974</ele>
        <time>2020-01-04T19:53:33Z</time>
      </trkpt>
      <trkpt lat="44.06756" lon="3.462">
        <ele>979</ele>
        <time>2020-01-04T19:53:39Z</time>
      </trkpt>
      <trkpt lat="44.06766" lon="3.46201">
        <ele>981</ele>
        <time>2020-01-04T19:53:41Z</time>
      </trkpt>
      <trkpt lat="44.06794" lon="3.4621">
        <ele>984</ele>
        <time>2020-01-04T19:53:48Z</time>
      </trkpt>
      <trkpt lat="44.06821" lon="3.4622">
        <ele>987</ele>
        <time>2020-01-04T19:53:54Z</time>
      </trkpt>
      <trkpt lat="44.06852" lon="3.46238">
        <ele>990</ele>
        <time>2020-01-04T19:54:02Z</time>
      </trkpt>
      <trkpt lat="44.0686" lon="3.46245">
        <ele>991</ele>
        <time>2020-01-04T19:54:04Z</time>
      </trkpt>
      <trkpt lat="44.06864" lon="3.46265">
        <ele>989</ele>
        <time>2020-01-04T19:54:08Z</time>
      </trkpt>
      <trkpt lat="44.06865" lon="3.46286">
        <ele>987</ele>
        <time>2020-01-04T19:54:11Z</time>
      </trkpt>
      <trkpt lat="44.06881" lon="3.46331">
        <ele>989</ele>
        <time>2020-01-04T19:54:20Z</time>
      </trkpt>
      <trkpt lat="44.06875" lon="3.46385">
        <ele>983</ele>
        <time>2020-01-04T19:54:29Z</time>
      </trkpt>
      <trkpt lat="44.06882" lon="3.46409">
        <ele>983</ele>
        <time>2020-01-04T19:54:33Z</time>
      </trkpt>
      <trkpt lat="44.06891" lon="3.46422">
        <ele>985</ele>
        <time>2020-01-04T19:54:36Z</time>
      </trkpt>
      <trkpt lat="44.06921" lon="3.46438">
        <ele>991</ele>
        <time>2020-01-04T19:54:44Z</time>
      </trkpt>
      <trkpt lat="44.06934" lon="3.46453">
        <ele>992</ele>
        <time>2020-01-04T19:54:48Z</time>
      </trkpt>
      <trkpt lat="44.06943" lon="3.46471">
        <ele>991</ele>
        <time>2020-01-04T19:54:51Z</time>
      </trkpt>
      <trkpt lat="44.06954" lon="3.46509">
        <ele>987</ele>
        <time>2020-01-04T19:54:58Z</time>
      </trkpt>
      <trkpt lat="44.0697" lon="3.46534">
        <ele>985</ele>
        <time>2020-01-04T19:55:04Z</time>
      </trkpt>
      <trkpt lat="44.06978" lon="3.46539">
        <ele>985</ele>
        <time>2020-01-04T19:55:06Z</time>
      </trkpt>
      <trkpt lat="44.06998" lon="3.46542">
        <ele>987</ele>
        <time>2020-01-04T19:55:11Z</time>
      </trkpt>
      <trkpt lat="44.0702" lon="3.46541">
        <ele>988</ele>
        <time>2020-01-04T19:55:16Z</time>
      </trkpt>
      <trkpt lat="44.07044" lon="3.46536">
        <ele>990</ele>
        <time>2020-01-04T19:55:21Z</time>
      </trkpt>
      <trkpt lat="44.07075" lon="3.46524">
        <ele>994</ele>
        <time>2020-01-04T19:55:29Z</time>
      </trkpt>
      <trkpt lat="44.07127" lon="3.465">
        <ele>995</ele>
        <time>2020-01-04T19:55:42Z</time>
      </trkpt>
      <trkpt lat="44.07139" lon="3.46488">
        <ele>997</ele>
        <time>2020-01-04T19:55:45Z</time>
      </trkpt>
      <trkpt lat="44.07155" lon="3.46463">
        <ele>1001</ele>
        <time>2020-01-04T19:55:51Z</time>
      </trkpt>
      <trkpt lat="44.0716" lon="3.46459">
        <ele>1002</ele>
        <time>2020-01-04T19:55:52Z</time>
      </trkpt>
      <trkpt lat="44.07241" lon="3.46441">
        <ele>1001</ele>
        <time>2020-01-04T19:56:11Z</time>
      </trkpt>
      <trkpt lat="44.07267" lon="3.46421">
        <ele>1006</ele>
        <time>2020-01-04T19:56:18Z</time>
      </trkpt>
      <trkpt lat="44.07284" lon="3.46417">
        <ele>1006</ele>
        <time>2020-01-04T19:56:22Z</time>
      </trkpt>
      <trkpt lat="44.07307" lon="3.46417">
        <ele>1003</ele>
        <time>2020-01-04T19:56:28Z</time>
      </trkpt>
      <trkpt lat="44.07317" lon="3.46413">
        <ele>1003</ele>
        <time>2020-01-04T19:56:30Z</time>
      </trkpt>
      <trkpt lat="44.07326" lon="3.46406">
        <ele>1005</ele>
        <time>2020-01-04T19:56:33Z</time>
      </trkpt>
      <trkpt lat="44.07334" lon="3.46404">
        <ele>1005</ele>
        <time>2020-01-04T19:56:34Z</time>
      </trkpt>
      <trkpt lat="44.07355" lon="3.46412">
        <ele>1003</ele>
        <time>2020-01-04T19:56:40Z</time>
      </trkpt>
      <trkpt lat="44.07373" lon="3.46415">
        <ele>1002</ele>
        <time>2020-01-04T19:56:44Z</time>
      </trkpt>
      <trkpt lat="44.07404" lon="3.46415">
        <ele>1003</ele>
        <time>2020-01-04T19:56:51Z</time>
      </trkpt>
      <trkpt lat="44.07441" lon="3.464">
        <ele>1011</ele>
        <time>2020-01-04T19:57:00Z</time>
      </trkpt>
      <trkpt lat="44.07453" lon="3.464">
        <ele>1013</ele>
        <time>2020-01-04T19:57:03Z</time>
      </trkpt>
      <trkpt lat="44.07476" lon="3.46405">
        <ele>1014</ele>
        <time>2020-01-04T19:57:08Z</time>
      </trkpt>
      <trkpt lat="44.07488" lon="3.46414">
        <ele>1013</ele>
        <time>2020-01-04T19:57:11Z</time>
      </trkpt>
      <trkpt lat="44.07494" lon="3.46428">
        <ele>1013</ele>
        <time>2020-01-04T19:57:14Z</time>
      </trkpt>
      <trkpt lat="44.07492" lon="3.46456">
        <ele>1011</ele>
        <time>2020-01-04T19:57:19Z</time>
      </trkpt>
      <trkpt lat="44.07493" lon="3.46488">
        <ele>1010</ele>
        <time>2020-01-04T19:57:24Z</time>
      </trkpt>
      <trkpt lat="44.07526" lon="3.46628">
        <ele>1008</ele>
        <time>2020-01-04T19:57:49Z</time>
      </trkpt>
      <trkpt lat="44.0753" lon="3.4664">
        <ele>1008</ele>
        <time>2020-01-04T19:57:51Z</time>
      </trkpt>
      <trkpt lat="44.07542" lon="3.46651">
        <ele>1008</ele>
        <time>2020-01-04T19:57:55Z</time>
      </trkpt>
      <trkpt lat="44.07553" lon="3.46653">
        <ele>1009</ele>
        <time>2020-01-04T19:57:57Z</time>
      </trkpt>
      <trkpt lat="44.07613" lon="3.4664">
        <ele>1014</ele>
        <time>2020-01-04T19:58:11Z</time>
      </trkpt>
      <trkpt lat="44.0763" lon="3.46628">
        <ele>1016</ele>
        <time>2020-01-04T19:58:16Z</time>
      </trkpt>
      <trkpt lat="44.07652" lon="3.46608">
        <ele>1021</ele>
        <time>2020-01-04T19:58:22Z</time>
      </trkpt>
      <trkpt lat="44.07669" lon="3.46598">
        <ele>1024</ele>
        <time>2020-01-04T19:58:26Z</time>
      </trkpt>
      <trkpt lat="44.07685" lon="3.46593">
        <ele>1026</ele>
        <time>2020-01-04T19:58:30Z</time>
      </trkpt>
      <trkpt lat="44.07699" lon="3.46592">
        <ele>1027</ele>
        <time>2020-01-04T19:58:33Z</time>
      </trkpt>
      <trkpt lat="44.07721" lon="3.466">
        <ele>1026</ele>
        <time>2020-01-04T19:58:39Z</time>
      </trkpt>
      <trkpt lat="44.07807" lon="3.46649">
        <ele>1025</ele>
        <time>2020-01-04T19:59:00Z</time>
      </trkpt>
      <trkpt lat="44.07853" lon="3.46669">
        <ele>1025</ele>
        <time>2020-01-04T19:59:12Z</time>
      </trkpt>
      <trkpt lat="44.07871" lon="3.46674">
        <ele>1026</ele>
        <time>2020-01-04T19:59:16Z</time>
      </trkpt>
      <trkpt lat="44.07916" lon="3.46674">
        <ele>1031</ele>
        <time>2020-01-04T19:59:26Z</time>
      </trkpt>
      <trkpt lat="44.07931" lon="3.46682">
        <ele>1033</ele>
        <time>2020-01-04T19:59:30Z</time>
      </trkpt>
      <trkpt lat="44.07939" lon="3.46693">
        <ele>1033</ele>
        <time>2020-01-04T19:59:33Z</time>
      </trkpt>
      <trkpt lat="44.07945" lon="3.46717">
        <ele>1032</ele>
        <time>2020-01-04T19:59:37Z</time>
      </trkpt>
      <trkpt lat="44.0795" lon="3.46777">
        <ele>1026</ele>
        <time>2020-01-04T19:59:47Z</time>
      </trkpt>
      <trkpt lat="44.07965" lon="3.46804">
        <ele>1025</ele>
        <time>2020-01-04T19:59:53Z</time>
      </trkpt>
      <trkpt lat="44.0803" lon="3.46853">
        <ele>1033</ele>
        <time>2020-01-04T20:00:10Z</time>
      </trkpt>
      <trkpt lat="44.08095" lon="3.46924">
        <ele>1034</ele>
        <time>2020-01-04T20:00:29Z</time>
      </trkpt>
      <trkpt lat="44.08148" lon="3.46963">
        <ele>1040</ele>
        <time>2020-01-04T20:00:43Z</time>
      </trkpt>
      <trkpt lat="44.08154" lon="3.4697">
        <ele>1040</ele>
        <time>2020-01-04T20:00:45Z</time>
      </trkpt>
      <trkpt lat="44.08158" lon="3.46981">
        <ele>1040</ele>
        <time>2020-01-04T20:00:47Z</time>
      </trkpt>
      <trkpt lat="44.0816" lon="3.47">
        <ele>1038</ele>
        <time>2020-01-04T20:00:51Z</time>
      </trkpt>
      <trkpt lat="44.08154" lon="3.47018">
        <ele>1039</ele>
        <time>2020-01-04T20:00:54Z</time>
      </trkpt>
      <trkpt lat="44.08136" lon="3.47038">
        <ele>1037</ele>
        <time>2020-01-04T20:00:59Z</time>
      </trkpt>
      <trkpt lat="44.08118" lon="3.4705">
        <ele>1034</ele>
        <time>2020-01-04T20:01:04Z</time>
      </trkpt>
      <trkpt lat="44.08102" lon="3.47088">
        <ele>1033</ele>
        <time>2020-01-04T20:01:11Z</time>
      </trkpt>
      <trkpt lat="44.08104" lon="3.471">
        <ele>1034</ele>
        <time>2020-01-04T20:01:13Z</time>
      </trkpt>
      <trkpt lat="44.08117" lon="3.47126">
        <ele>1039</ele>
        <time>2020-01-04T20:01:19Z</time>
      </trkpt>
      <trkpt lat="44.08118" lon="3.47135">
        <ele>1039</ele>
        <time>2020-01-04T20:01:20Z</time>
      </trkpt>
      <trkpt lat="44.08116" lon="3.47207">
        <ele>1043</ele>
        <time>2020-01-04T20:01:32Z</time>
      </trkpt>
      <trkpt lat="44.08119" lon="3.47228">
        <ele>1045</ele>
        <time>2020-01-04T20:01:36Z</time>
      </trkpt>
      <trkpt lat="44.08116" lon="3.4724">
        <ele>1045</ele>
        <time>2020-01-04T20:01:38Z</time>
      </trkpt>
      <trkpt lat="44.08108" lon="3.47254">
        <ele>1044</ele>
        <time>2020-01-04T20:01:41Z</time>
      </trkpt>
      <trkpt lat="44.081" lon="3.47258">
        <ele>1041</ele>
        <time>2020-01-04T20:01:43Z</time>
      </trkpt>
      <trkpt lat="44.08091" lon="3.47252">
        <ele>1038</ele>
        <time>2020-01-04T20:01:45Z</time>
      </trkpt>
      <trkpt lat="44.08086" lon="3.4726">
        <ele>1037</ele>
        <time>2020-01-04T20:01:47Z</time>
      </trkpt>
      <trkpt lat="44.08062" lon="3.47326">
        <ele>1034</ele>
        <time>2020-01-04T20:02:00Z</time>
      </trkpt>
      <trkpt lat="44.08055" lon="3.47357">
        <ele>1037</ele>
        <time>2020-01-04T20:02:05Z</time>
      </trkpt>
      <trkpt lat="44.0805" lon="3.4737">
        <ele>1039</ele>
        <time>2020-01-04T20:02:07Z</time>
      </trkpt>
      <trkpt lat="44.08043" lon="3.4738">
        <ele>1039</ele>
        <time>2020-01-04T20:02:10Z</time>
      </trkpt>
      <trkpt lat="44.08032" lon="3.47391">
        <ele>1039</ele>
        <time>2020-01-04T20:02:13Z</time>
      </trkpt>
      <trkpt lat="44.07989" lon="3.47413">
        <ele>1037</ele>
        <time>2020-01-04T20:02:24Z</time>
      </trkpt>
      <trkpt lat="44.07958" lon="3.47412">
        <ele>1035</ele>
        <time>2020-01-04T20:02:31Z</time>
      </trkpt>
      <trkpt lat="44.07946" lon="3.47415">
        <ele>1035</ele>
        <time>2020-01-04T20:02:34Z</time>
      </trkpt>
      <trkpt lat="44.07929" lon="3.47434">
        <ele>1038</ele>
        <time>2020-01-04T20:02:39Z</time>
      </trkpt>
      <trkpt lat="44.07918" lon="3.47454">
        <ele>1042</ele>
        <time>2020-01-04T20:02:43Z</time>
      </trkpt>
      <trkpt lat="44.07902" lon="3.47495">
        <ele>1051</ele>
        <time>2020-01-04T20:02:51Z</time>
      </trkpt>
      <trkpt lat="44.07898" lon="3.47499">
        <ele>1052</ele>
        <time>2020-01-04T20:02:52Z</time>
      </trkpt>
      <trkpt lat="44.07885" lon="3.47502">
        <ele>1052</ele>
        <time>2020-01-04T20:02:55Z</time>
      </trkpt>
      <trkpt lat="44.07851" lon="3.47493">
        <ele>1049</ele>
        <time>2020-01-04T20:03:03Z</time>
      </trkpt>
      <trkpt lat="44.07792" lon="3.47502">
        <ele>1049</ele>
        <time>2020-01-04T20:03:17Z</time>
      </trkpt>
      <trkpt lat="44.07763" lon="3.47512">
        <ele>1050</ele>
        <time>2020-01-04T20:03:24Z</time>
      </trkpt>
      <trkpt lat="44.07679" lon="3.47563">
        <ele>1056</ele>
        <time>2020-01-04T20:03:45Z</time>
      </trkpt>
      <trkpt lat="44.07636" lon="3.47586">
        <ele>1060</ele>
        <time>2020-01-04T20:03:56Z</time>
      </trkpt>
      <trkpt lat="44.0761" lon="3.47608">
        <ele>1065</ele>
        <time>2020-01-04T20:04:03Z</time>
      </trkpt>
      <trkpt lat="44.07581" lon="3.47625">
        <ele>1068</ele>
        <time>2020-01-04T20:04:11Z</time>
      </trkpt>
      <trkpt lat="44.07552" lon="3.47637">
        <ele>1071</ele>
        <time>2020-01-04T20:04:18Z</time>
      </trkpt>
      <trkpt lat="44.07532" lon="3.4764">
        <ele>1070</ele>
        <time>2020-01-04T20:04:22Z</time>
      </trkpt>
      <trkpt lat="44.07511" lon="3.47648">
        <ele>1071</ele>
        <time>2020-01-04T20:04:27Z</time>
      </trkpt>
      <trkpt lat="44.07471" lon="3.47655">
        <ele>1066</ele>
        <time>2020-01-04T20:04:37Z</time>
      </trkpt>
      <trkpt lat="44.07465" lon="3.47658">
        <ele>1065</ele>
        <time>2020-01-04T20:04:38Z</time>
      </trkpt>
      <trkpt lat="44.07461" lon="3.47663">
        <ele>1066</ele>
        <time>2020-01-04T20:04:40Z</time>
      </trkpt>
      <trkpt lat="44.07456" lon="3.4768">
        <ele>1068</ele>
        <time>2020-01-04T20:04:43Z</time>
      </trkpt>
      <trkpt lat="44.07454" lon="3.47709">
        <ele>1073</ele>
        <time>2020-01-04T20:04:48Z</time>
      </trkpt>
      <trkpt lat="44.07435" lon="3.47733">
        <ele>1072</ele>
        <time>2020-01-04T20:04:54Z</time>
      </trkpt>
      <trkpt lat="44.07429" lon="3.4777">
        <ele>1072</ele>
        <time>2020-01-04T20:05:00Z</time>
      </trkpt>
      <trkpt lat="44.07431" lon="3.47781">
        <ele>1072</ele>
        <time>2020-01-04T20:05:02Z</time>
      </trkpt>
      <trkpt lat="44.07434" lon="3.47784">
        <ele>1072</ele>
        <time>2020-01-04T20:05:03Z</time>
      </trkpt>
      <trkpt lat="44.07438" lon="3.47784">
        <ele>1074</ele>
        <time>2020-01-04T20:05:04Z</time>
      </trkpt>
      <trkpt lat="44.07441" lon="3.4778">
        <ele>1075</ele>
        <time>2020-01-04T20:05:05Z</time>
      </trkpt>
      <trkpt lat="44.07441" lon="3.47763">
        <ele>1076</ele>
        <time>2020-01-04T20:05:07Z</time>
      </trkpt>
      <trkpt lat="44.07449" lon="3.47749">
        <ele>1079</ele>
        <time>2020-01-04T20:05:10Z</time>
      </trkpt>
      <trkpt lat="44.07466" lon="3.47739">
        <ele>1082</ele>
        <time>2020-01-04T20:05:15Z</time>
      </trkpt>
      <trkpt lat="44.07483" lon="3.47719">
        <ele>1083</ele>
        <time>2020-01-04T20:05:20Z</time>
      </trkpt>
      <trkpt lat="44.07513" lon="3.47704">
        <ele>1085</ele>
        <time>2020-01-04T20:05:27Z</time>
      </trkpt>
      <trkpt lat="44.07592" lon="3.477">
        <ele>1091</ele>
        <time>2020-01-04T20:05:46Z</time>
      </trkpt>
      <trkpt lat="44.07654" lon="3.47709">
        <ele>1095</ele>
        <time>2020-01-04T20:06:00Z</time>
      </trkpt>
      <trkpt lat="44.07699" lon="3.47726">
        <ele>1101</ele>
        <time>2020-01-04T20:06:11Z</time>
      </trkpt>
      <trkpt lat="44.07718" lon="3.47727">
        <ele>1103</ele>
        <time>2020-01-04T20:06:16Z</time>
      </trkpt>
      <trkpt lat="44.07733" lon="3.47721">
        <ele>1103</ele>
        <time>2020-01-04T20:06:19Z</time>
      </trkpt>
      <trkpt lat="44.07767" lon="3.47689">
        <ele>1097</ele>
        <time>2020-01-04T20:06:29Z</time>
      </trkpt>
      <trkpt lat="44.07772" lon="3.47686">
        <ele>1096</ele>
        <time>2020-01-04T20:06:30Z</time>
      </trkpt>
      <trkpt lat="44.07785" lon="3.47685">
        <ele>1096</ele>
        <time>2020-01-04T20:06:33Z</time>
      </trkpt>
      <trkpt lat="44.07794" lon="3.47688">
        <ele>1096</ele>
        <time>2020-01-04T20:06:35Z</time>
      </trkpt>
      <trkpt lat="44.07801" lon="3.47697">
        <ele>1097</ele>
        <time>2020-01-04T20:06:38Z</time>
      </trkpt>
      <trkpt lat="44.07803" lon="3.47716">
        <ele>1099</ele>
        <time>2020-01-04T20:06:41Z</time>
      </trkpt>
      <trkpt lat="44.078" lon="3.47762">
        <ele>1105</ele>
        <time>2020-01-04T20:06:49Z</time>
      </trkpt>
      <trkpt lat="44.07815" lon="3.478">
        <ele>1106</ele>
        <time>2020-01-04T20:06:56Z</time>
      </trkpt>
      <trkpt lat="44.07821" lon="3.4783">
        <ele>1108</ele>
        <time>2020-01-04T20:07:01Z</time>
      </trkpt>
      <trkpt lat="44.07828" lon="3.47844">
        <ele>1108</ele>
        <time>2020-01-04T20:07:04Z</time>
      </trkpt>
      <trkpt lat="44.07839" lon="3.47856">
        <ele>1109</ele>
        <time>2020-01-04T20:07:07Z</time>
      </trkpt>
      <trkpt lat="44.0785" lon="3.47859">
        <ele>1110</ele>
        <time>2020-01-04T20:07:10Z</time>
      </trkpt>
      <trkpt lat="44.07861" lon="3.47858">
        <ele>1111</ele>
        <time>2020-01-04T20:07:13Z</time>
      </trkpt>
      <trkpt lat="44.0792" lon="3.47833">
        <ele>1112</ele>
        <time>2020-01-04T20:07:27Z</time>
      </trkpt>
      <trkpt lat="44.07969" lon="3.47831">
        <ele>1120</ele>
        <time>2020-01-04T20:07:38Z</time>
      </trkpt>
      <trkpt lat="44.08002" lon="3.47833">
        <ele>1126</ele>
        <time>2020-01-04T20:07:46Z</time>
      </trkpt>
      <trkpt lat="44.0803" lon="3.47811">
        <ele>1129</ele>
        <time>2020-01-04T20:07:54Z</time>
      </trkpt>
      <trkpt lat="44.08036" lon="3.47793">
        <ele>1127</ele>
        <time>2020-01-04T20:07:57Z</time>
      </trkpt>
      <trkpt lat="44.08036" lon="3.47751">
        <ele>1119</ele>
        <time>2020-01-04T20:08:04Z</time>
      </trkpt>
      <trkpt lat="44.08068" lon="3.4771">
        <ele>1118</ele>
        <time>2020-01-04T20:08:14Z</time>
      </trkpt>
      <trkpt lat="44.08108" lon="3.47679">
        <ele>1120</ele>
        <time>2020-01-04T20:08:25Z</time>
      </trkpt>
      <trkpt lat="44.08119" lon="3.47673">
        <ele>1121</ele>
        <time>2020-01-04T20:08:28Z</time>
      </trkpt>
      <trkpt lat="44.08133" lon="3.4767">
        <ele>1124</ele>
        <time>2020-01-04T20:08:31Z</time>
      </trkpt>
      <trkpt lat="44.08156" lon="3.47651">
        <ele>1125</ele>
        <time>2020-01-04T20:08:37Z</time>
      </trkpt>
      <trkpt lat="44.0819" lon="3.47634">
        <ele>1129</ele>
        <time>2020-01-04T20:08:46Z</time>
      </trkpt>
      <trkpt lat="44.08208" lon="3.4762">
        <ele>1130</ele>
        <time>2020-01-04T20:08:50Z</time>
      </trkpt>
      <trkpt lat="44.08228" lon="3.47614">
        <ele>1134</ele>
        <time>2020-01-04T20:08:55Z</time>
      </trkpt>
      <trkpt lat="44.08241" lon="3.47602">
        <ele>1135</ele>
        <time>2020-01-04T20:08:59Z</time>
      </trkpt>
      <trkpt lat="44.08255" lon="3.47578">
        <ele>1134</ele>
        <time>2020-01-04T20:09:04Z</time>
      </trkpt>
      <trkpt lat="44.08266" lon="3.4757">
        <ele>1138</ele>
        <time>2020-01-04T20:09:07Z</time>
      </trkpt>
      <trkpt lat="44.08274" lon="3.47549">
        <ele>1138</ele>
        <time>2020-01-04T20:09:11Z</time>
      </trkpt>
      <trkpt lat="44.08288" lon="3.47482">
        <ele>1137</ele>
        <time>2020-01-04T20:09:23Z</time>
      </trkpt>
      <trkpt lat="44.08314" lon="3.47416">
        <ele>1142</ele>
        <time>2020-01-04T20:09:35Z</time>
      </trkpt>
      <trkpt lat="44.08318" lon="3.47373">
        <ele>1137</ele>
        <time>2020-01-04T20:09:42Z</time>
      </trkpt>
      <trkpt lat="44.08336" lon="3.47315">
        <ele>1136</ele>
        <time>2020-01-04T20:09:53Z</time>
      </trkpt>
      <trkpt lat="44.08346" lon="3.47295">
        <ele>1138</ele>
        <time>2020-01-04T20:09:57Z</time>
      </trkpt>
      <trkpt lat="44.08349" lon="3.47297">
        <ele>1140</ele>
        <time>2020-01-04T20:09:58Z</time>
      </trkpt>
      <trkpt lat="44.084" lon="3.47231">
        <ele>1150</ele>
        <time>2020-01-04T20:10:14Z</time>
      </trkpt>
      <trkpt lat="44.0844" lon="3.47133">
        <ele>1147</ele>
        <time>2020-01-04T20:10:33Z</time>
      </trkpt>
      <trkpt lat="44.08497" lon="3.47051">
        <ele>1157</ele>
        <time>2020-01-04T20:10:52Z</time>
      </trkpt>
      <trkpt lat="44.0851" lon="3.46938">
        <ele>1155</ele>
        <time>2020-01-04T20:11:11Z</time>
      </trkpt>
      <trkpt lat="44.08516" lon="3.46774">
        <ele>1165</ele>
        <time>2020-01-04T20:11:39Z</time>
      </trkpt>
      <trkpt lat="44.08489" lon="3.46747">
        <ele>1161</ele>
        <time>2020-01-04T20:11:47Z</time>
      </trkpt>
      <trkpt lat="44.08411" lon="3.46697">
        <ele>1161</ele>
        <time>2020-01-04T20:12:07Z</time>
      </trkpt>
      <trkpt lat="44.08327" lon="3.46669">
        <ele>1161</ele>
        <time>2020-01-04T20:12:27Z</time>
      </trkpt>
      <trkpt lat="44.08284" lon="3.46626">
        <ele>1159</ele>
        <time>2020-01-04T20:12:39Z</time>
      </trkpt>
      <trkpt lat="44.08279" lon="3.46498">
        <ele>1169</ele>
        <time>2020-01-04T20:13:01Z</time>
      </trkpt>
      <trkpt lat="44.08254" lon="3.46361">
        <ele>1179</ele>
        <time>2020-01-04T20:13:25Z</time>
      </trkpt>
      <trkpt lat="44.08206" lon="3.46283">
        <ele>1187</ele>
        <time>2020-01-04T20:13:42Z</time>
      </trkpt>
      <trkpt lat="44.08271" lon="3.46322">
        <ele>1196</ele>
        <time>2020-01-04T20:13:58Z</time>
      </trkpt>
      <trkpt lat="44.083" lon="3.46408">
        <ele>1191</ele>
        <time>2020-01-04T20:14:14Z</time>
      </trkpt>
      <trkpt lat="44.08319" lon="3.46428">
        <ele>1196</ele>
        <time>2020-01-04T20:14:20Z</time>
      </trkpt>
      <trkpt lat="44.08327" lon="3.46509">
        <ele>1188</ele>
        <time>2020-01-04T20:14:34Z</time>
      </trkpt>
      <trkpt lat="44.0837" lon="3.46545">
        <ele>1197</ele>
        <time>2020-01-04T20:14:45Z</time>
      </trkpt>
      <trkpt lat="44.08403" lon="3.46552">
        <ele>1205</ele>
        <time>2020-01-04T20:14:53Z</time>
      </trkpt>
      <trkpt lat="44.08443" lon="3.46583">
        <ele>1205</ele>
        <time>2020-01-04T20:15:04Z</time>
      </trkpt>
      <trkpt lat="44.08521" lon="3.46599">
        <ele>1212</ele>
        <time>2020-01-04T20:15:22Z</time>
      </trkpt>
      <trkpt lat="44.08581" lon="3.46626">
        <ele>1214</ele>
        <time>2020-01-04T20:15:37Z</time>
      </trkpt>
      <trkpt lat="44.08634" lon="3.46642">
        <ele>1218</ele>
        <time>2020-01-04T20:15:50Z</time>
      </trkpt>
      <trkpt lat="44.08675" lon="3.46704">
        <ele>1224</ele>
        <time>2020-01-04T20:16:04Z</time>
      </trkpt>
      <trkpt lat="44.08719" lon="3.4656">
        <ele>1232</ele>
        <time>2020-01-04T20:16:30Z</time>
      </trkpt>
      <trkpt lat="44.08714" lon="3.46561">
        <ele>1232</ele>
        <time>2020-01-04T20:16:31Z</time>
      </trkpt>
      <trkpt lat="44.08715" lon="3.46567">
        <ele>1232</ele>
        <time>2020-01-04T20:16:32Z</time>
      </trkpt>
      <trkpt lat="44.0876" lon="3.46589">
        <ele>1233</ele>
        <time>2020-01-04T20:16:43Z</time>
      </trkpt>
      <trkpt lat="44.08803" lon="3.46629">
        <ele>1232</ele>
        <time>2020-01-04T20:16:55Z</time>
      </trkpt>
      <trkpt lat="44.08929" lon="3.46692">
        <ele>1228</ele>
        <time>2020-01-04T20:17:27Z</time>
      </trkpt>
      <trkpt lat="44.09002" lon="3.4672">
        <ele>1226</ele>
        <time>2020-01-04T20:17:44Z</time>
      </trkpt>
      <trkpt lat="44.09052" lon="3.4673">
        <ele>1224</ele>
        <time>2020-01-04T20:17:56Z</time>
      </trkpt>
      <trkpt lat="44.09105" lon="3.46735">
        <ele>1222</ele>
        <time>2020-01-04T20:18:08Z</time>
      </trkpt>
      <trkpt lat="44.09129" lon="3.46758">
        <ele>1222</ele>
        <time>2020-01-04T20:18:15Z</time>
      </trkpt>
      <trkpt lat="44.09168" lon="3.46805">
        <ele>1223</ele>
        <time>2020-01-04T20:18:27Z</time>
      </trkpt>
      <trkpt lat="44.09178" lon="3.46835">
        <ele>1224</ele>
        <time>2020-01-04T20:18:33Z</time>
      </trkpt>
      <trkpt lat="44.0921" lon="3.46962">
        <ele>1228</ele>
        <time>2020-01-04T20:18:55Z</time>
      </trkpt>
      <trkpt lat="44.09232" lon="3.47001">
        <ele>1227</ele>
        <time>2020-01-04T20:19:04Z</time>
      </trkpt>
      <trkpt lat="44.09238" lon="3.47056">
        <ele>1231</ele>
        <time>2020-01-04T20:19:13Z</time>
      </trkpt>
      <trkpt lat="44.0923" lon="3.47138">
        <ele>1233</ele>
        <time>2020-01-04T20:19:27Z</time>
      </trkpt>
      <trkpt lat="44.09202" lon="3.47209">
        <ele>1237</ele>
        <time>2020-01-04T20:19:41Z</time>
      </trkpt>
      <trkpt lat="44.09165" lon="3.4728">
        <ele>1239</ele>
        <time>2020-01-04T20:19:55Z</time>
      </trkpt>
      <trkpt lat="44.09065" lon="3.47389">
        <ele>1247</ele>
        <time>2020-01-04T20:20:25Z</time>
      </trkpt>
      <trkpt lat="44.09017" lon="3.4743">
        <ele>1249</ele>
        <time>2020-01-04T20:20:38Z</time>
      </trkpt>
      <trkpt lat="44.08966" lon="3.47453">
        <ele>1253</ele>
        <time>2020-01-04T20:20:51Z</time>
      </trkpt>
      <trkpt lat="44.08906" lon="3.47494">
        <ele>1255</ele>
        <time>2020-01-04T20:21:06Z</time>
      </trkpt>
      <trkpt lat="44.08831" lon="3.47561">
        <ele>1261</ele>
        <time>2020-01-04T20:21:27Z</time>
      </trkpt>
      <trkpt lat="44.08798" lon="3.47574">
        <ele>1265</ele>
        <time>2020-01-04T20:21:35Z</time>
      </trkpt>
      <trkpt lat="44.08762" lon="3.47606">
        <ele>1267</ele>
        <time>2020-01-04T20:21:45Z</time>
      </trkpt>
      <trkpt lat="44.087" lon="3.47698">
        <ele>1267</ele>
        <time>2020-01-04T20:22:06Z</time>
      </trkpt>
      <trkpt lat="44.08629" lon="3.4776">
        <ele>1272</ele>
        <time>2020-01-04T20:22:26Z</time>
      </trkpt>
      <trkpt lat="44.08543" lon="3.47775">
        <ele>1274</ele>
        <time>2020-01-04T20:22:46Z</time>
      </trkpt>
      <trkpt lat="44.08517" lon="3.47795">
        <ele>1273</ele>
        <time>2020-01-04T20:22:53Z</time>
      </trkpt>
      <trkpt lat="44.08494" lon="3.47829">
        <ele>1273</ele>
        <time>2020-01-04T20:23:01Z</time>
      </trkpt>
      <trkpt lat="44.08496" lon="3.47859">
        <ele>1277</ele>
        <time>2020-01-04T20:23:06Z</time>
      </trkpt>
      <trkpt lat="44.08507" lon="3.47878">
        <ele>1280</ele>
        <time>2020-01-04T20:23:10Z</time>
      </trkpt>
      <trkpt lat="44.08537" lon="3.479">
        <ele>1282</ele>
        <time>2020-01-04T20:23:18Z</time>
      </trkpt>
      <trkpt lat="44.08586" lon="3.47919">
        <ele>1283</ele>
        <time>2020-01-04T20:23:30Z</time>
      </trkpt>
      <trkpt lat="44.08633" lon="3.47945">
        <ele>1288</ele>
        <time>2020-01-04T20:23:42Z</time>
      </trkpt>
      <trkpt lat="44.08732" lon="3.4796">
        <ele>1287</ele>
        <time>2020-01-04T20:24:05Z</time>
      </trkpt>
      <trkpt lat="44.08753" lon="3.48001">
        <ele>1290</ele>
        <time>2020-01-04T20:24:13Z</time>
      </trkpt>
      <trkpt lat="44.0876" lon="3.48071">
        <ele>1295</ele>
        <time>2020-01-04T20:24:25Z</time>
      </trkpt>
      <trkpt lat="44.08762" lon="3.48176">
        <ele>1302</ele>
        <time>2020-01-04T20:24:43Z</time>
      </trkpt>
      <trkpt lat="44.08758" lon="3.48258">
        <ele>1305</ele>
        <time>2020-01-04T20:24:56Z</time>
      </trkpt>
      <trkpt lat="44.08732" lon="3.48331">
        <ele>1308</ele>
        <time>2020-01-04T20:25:10Z</time>
      </trkpt>
      <trkpt lat="44.087" lon="3.48372">
        <ele>1313</ele>
        <time>2020-01-04T20:25:20Z</time>
      </trkpt>
      <trkpt lat="44.087" lon="3.48415">
        <ele>1313</ele>
        <time>2020-01-04T20:25:28Z</time>
      </trkpt>
      <trkpt lat="44.0871" lon="3.4844">
        <ele>1314</ele>
        <time>2020-01-04T20:25:32Z</time>
      </trkpt>
      <trkpt lat="44.08764" lon="3.48516">
        <ele>1317</ele>
        <time>2020-01-04T20:25:50Z</time>
      </trkpt>
      <trkpt lat="44.08822" lon="3.48528">
        <ele>1316</ele>
        <time>2020-01-04T20:26:04Z</time>
      </trkpt>
      <trkpt lat="44.08869" lon="3.48554">
        <ele>1315</ele>
        <time>2020-01-04T20:26:16Z</time>
      </trkpt>
      <trkpt lat="44.08882" lon="3.48591">
        <ele>1316</ele>
        <time>2020-01-04T20:26:23Z</time>
      </trkpt>
      <trkpt lat="44.08882" lon="3.48664">
        <ele>1317</ele>
        <time>2020-01-04T20:26:35Z</time>
      </trkpt>
      <trkpt lat="44.08848" lon="3.48732">
        <ele>1320</ele>
        <time>2020-01-04T20:26:49Z</time>
      </trkpt>
      <trkpt lat="44.08803" lon="3.48756">
        <ele>1323</ele>
        <time>2020-01-04T20:27:00Z</time>
      </trkpt>
      <trkpt lat="44.08756" lon="3.48771">
        <ele>1325</ele>
        <time>2020-01-04T20:27:11Z</time>
      </trkpt>
      <trkpt lat="44.08702" lon="3.48769">
        <ele>1329</ele>
        <time>2020-01-04T20:27:24Z</time>
      </trkpt>
      <trkpt lat="44.08569" lon="3.48773">
        <ele>1336</ele>
        <time>2020-01-04T20:27:55Z</time>
      </trkpt>
      <trkpt lat="44.08543" lon="3.48792">
        <ele>1336</ele>
        <time>2020-01-04T20:28:02Z</time>
      </trkpt>
      <trkpt lat="44.0853" lon="3.4882">
        <ele>1337</ele>
        <time>2020-01-04T20:28:07Z</time>
      </trkpt>
      <trkpt lat="44.08526" lon="3.48846">
        <ele>1338</ele>
        <time>2020-01-04T20:28:12Z</time>
      </trkpt>
      <trkpt lat="44.0852" lon="3.48925">
        <ele>1340</ele>
        <time>2020-01-04T20:28:25Z</time>
      </trkpt>
      <trkpt lat="44.08511" lon="3.49101">
        <ele>1339</ele>
        <time>2020-01-04T20:28:55Z</time>
      </trkpt>
      <trkpt lat="44.08513" lon="3.49243">
        <ele>1337</ele>
        <time>2020-01-04T20:29:19Z</time>
      </trkpt>
      <trkpt lat="44.08526" lon="3.49297">
        <ele>1339</ele>
        <time>2020-01-04T20:29:28Z</time>
      </trkpt>
      <trkpt lat="44.08554" lon="3.49378">
        <ele>1342</ele>
        <time>2020-01-04T20:29:43Z</time>
      </trkpt>
      <trkpt lat="44.0858" lon="3.49406">
        <ele>1342</ele>
        <time>2020-01-04T20:29:51Z</time>
      </trkpt>
      <trkpt lat="44.08595" lon="3.49432">
        <ele>1341</ele>
        <time>2020-01-04T20:29:57Z</time>
      </trkpt>
      <trkpt lat="44.08592" lon="3.49464">
        <ele>1342</ele>
        <time>2020-01-04T20:30:02Z</time>
      </trkpt>
      <trkpt lat="44.08582" lon="3.49496">
        <ele>1343</ele>
        <time>2020-01-04T20:30:08Z</time>
      </trkpt>
      <trkpt lat="44.0858" lon="3.49539">
        <ele>1344</ele>
        <time>2020-01-04T20:30:15Z</time>
      </trkpt>
      <trkpt lat="44.08588" lon="3.49576">
        <ele>1344</ele>
        <time>2020-01-04T20:30:22Z</time>
      </trkpt>
      <trkpt lat="44.08607" lon="3.49616">
        <ele>1346</ele>
        <time>2020-01-04T20:30:30Z</time>
      </trkpt>
      <trkpt lat="44.08633" lon="3.49655">
        <ele>1348</ele>
        <time>2020-01-04T20:30:39Z</time>
      </trkpt>
      <trkpt lat="44.08653" lon="3.49674">
        <ele>1348</ele>
        <time>2020-01-04T20:30:44Z</time>
      </trkpt>
      <trkpt lat="44.08678" lon="3.49719">
        <ele>1351</ele>
        <time>2020-01-04T20:30:54Z</time>
      </trkpt>
      <trkpt lat="44.08695" lon="3.49736">
        <ele>1352</ele>
        <time>2020-01-04T20:30:59Z</time>
      </trkpt>
      <trkpt lat="44.08745" lon="3.49777">
        <ele>1353</ele>
        <time>2020-01-04T20:31:12Z</time>
      </trkpt>
      <trkpt lat="44.08805" lon="3.49807">
        <ele>1354</ele>
        <time>2020-01-04T20:31:27Z</time>
      </trkpt>
      <trkpt lat="44.08856" lon="3.49846">
        <ele>1355</ele>
        <time>2020-01-04T20:31:41Z</time>
      </trkpt>
      <trkpt lat="44.08859" lon="3.49876">
        <ele>1356</ele>
        <time>2020-01-04T20:31:46Z</time>
      </trkpt>
      <trkpt lat="44.08801" lon="3.5">
        <ele>1365</ele>
        <time>2020-01-04T20:32:11Z</time>
      </trkpt>
      <trkpt lat="44.08792" lon="3.50043">
        <ele>1368</ele>
        <time>2020-01-04T20:32:18Z</time>
      </trkpt>
      <trkpt lat="44.08788" lon="3.50086">
        <ele>1370</ele>
        <time>2020-01-04T20:32:25Z</time>
      </trkpt>
      <trkpt lat="44.08796" lon="3.50129">
        <ele>1371</ele>
        <time>2020-01-04T20:32:33Z</time>
      </trkpt>
      <trkpt lat="44.08816" lon="3.50151">
        <ele>1370</ele>
        <time>2020-01-04T20:32:39Z</time>
      </trkpt>
      <trkpt lat="44.08871" lon="3.50181">
        <ele>1369</ele>
        <time>2020-01-04T20:32:53Z</time>
      </trkpt>
      <trkpt lat="44.08921" lon="3.50217">
        <ele>1368</ele>
        <time>2020-01-04T20:33:06Z</time>
      </trkpt>
      <trkpt lat="44.08966" lon="3.50245">
        <ele>1367</ele>
        <time>2020-01-04T20:33:17Z</time>
      </trkpt>
      <trkpt lat="44.09011" lon="3.5029">
        <ele>1365</ele>
        <time>2020-01-04T20:33:30Z</time>
      </trkpt>
      <trkpt lat="44.09028" lon="3.50318">
        <ele>1365</ele>
        <time>2020-01-04T20:33:36Z</time>
      </trkpt>
      <trkpt lat="44.09065" lon="3.50314">
        <ele>1362</ele>
        <time>2020-01-04T20:33:45Z</time>
      </trkpt>
      <trkpt lat="44.09099" lon="3.50331">
        <ele>1361</ele>
        <time>2020-01-04T20:33:53Z</time>
      </trkpt>
      <trkpt lat="44.09142" lon="3.50359">
        <ele>1359</ele>
        <time>2020-01-04T20:34:04Z</time>
      </trkpt>
      <trkpt lat="44.09187" lon="3.50393">
        <ele>1358</ele>
        <time>2020-01-04T20:34:16Z</time>
      </trkpt>
      <trkpt lat="44.09219" lon="3.50425">
        <ele>1356</ele>
        <time>2020-01-04T20:34:26Z</time>
      </trkpt>
      <trkpt lat="44.09232" lon="3.50451">
        <ele>1354</ele>
        <time>2020-01-04T20:34:31Z</time>
      </trkpt>
      <trkpt lat="44.0924" lon="3.50485">
        <ele>1352</ele>
        <time>2020-01-04T20:34:37Z</time>
      </trkpt>
      <trkpt lat="44.09228" lon="3.50537">
        <ele>1350</ele>
        <time>2020-01-04T20:34:46Z</time>
      </trkpt>
      <trkpt lat="44.09187" lon="3.50582">
        <ele>1352</ele>
        <time>2020-01-04T20:34:58Z</time>
      </trkpt>
      <trkpt lat="44.09161" lon="3.50597">
        <ele>1353</ele>
        <time>2020-01-04T20:35:05Z</time>
      </trkpt>
      <trkpt lat="44.0915" lon="3.50629">
        <ele>1351</ele>
        <time>2020-01-04T20:35:11Z</time>
      </trkpt>
      <trkpt lat="44.09137" lon="3.50653">
        <ele>1350</ele>
        <time>2020-01-04T20:35:16Z</time>
      </trkpt>
      <trkpt lat="44.09127" lon="3.50689">
        <ele>1349</ele>
        <time>2020-01-04T20:35:22Z</time>
      </trkpt>
      <trkpt lat="44.09142" lon="3.50713">
        <ele>1348</ele>
        <time>2020-01-04T20:35:28Z</time>
      </trkpt>
      <trkpt lat="44.0918" lon="3.50739">
        <ele>1343</ele>
        <time>2020-01-04T20:35:38Z</time>
      </trkpt>
      <trkpt lat="44.0924" lon="3.50814">
        <ele>1336</ele>
        <time>2020-01-04T20:35:56Z</time>
      </trkpt>
      <trkpt lat="44.09251" lon="3.50854">
        <ele>1334</ele>
        <time>2020-01-04T20:36:04Z</time>
      </trkpt>
      <trkpt lat="44.09245" lon="3.50897">
        <ele>1335</ele>
        <time>2020-01-04T20:36:11Z</time>
      </trkpt>
      <trkpt lat="44.09258" lon="3.50947">
        <ele>1332</ele>
        <time>2020-01-04T20:36:20Z</time>
      </trkpt>
      <trkpt lat="44.09268" lon="3.51005">
        <ele>1328</ele>
        <time>2020-01-04T20:36:30Z</time>
      </trkpt>
      <trkpt lat="44.09268" lon="3.51048">
        <ele>1324</ele>
        <time>2020-01-04T20:36:37Z</time>
      </trkpt>
      <trkpt lat="44.09253" lon="3.51093">
        <ele>1323</ele>
        <time>2020-01-04T20:36:45Z</time>
      </trkpt>
      <trkpt lat="44.09206" lon="3.51163">
        <ele>1323</ele>
        <time>2020-01-04T20:37:01Z</time>
      </trkpt>
      <trkpt lat="44.09146" lon="3.51238">
        <ele>1327</ele>
        <time>2020-01-04T20:37:20Z</time>
      </trkpt>
      <trkpt lat="44.09095" lon="3.51294">
        <ele>1326</ele>
        <time>2020-01-04T20:37:35Z</time>
      </trkpt>
      <trkpt lat="44.09037" lon="3.51331">
        <ele>1332</ele>
        <time>2020-01-04T20:37:50Z</time>
      </trkpt>
      <trkpt lat="44.09" lon="3.51376">
        <ele>1332</ele>
        <time>2020-01-04T20:38:02Z</time>
      </trkpt>
      <trkpt lat="44.08983" lon="3.51402">
        <ele>1330</ele>
        <time>2020-01-04T20:38:08Z</time>
      </trkpt>
      <trkpt lat="44.08979" lon="3.51447">
        <ele>1328</ele>
        <time>2020-01-04T20:38:15Z</time>
      </trkpt>
      <trkpt lat="44.09" lon="3.51487">
        <ele>1322</ele>
        <time>2020-01-04T20:38:24Z</time>
      </trkpt>
      <trkpt lat="44.09022" lon="3.51511">
        <ele>1314</ele>
        <time>2020-01-04T20:38:30Z</time>
      </trkpt>
      <trkpt lat="44.09032" lon="3.51532">
        <ele>1310</ele>
        <time>2020-01-04T20:38:34Z</time>
      </trkpt>
      <trkpt lat="44.09032" lon="3.51558">
        <ele>1309</ele>
        <time>2020-01-04T20:38:39Z</time>
      </trkpt>
      <trkpt lat="44.09022" lon="3.51599">
        <ele>1308</ele>
        <time>2020-01-04T20:38:46Z</time>
      </trkpt>
      <trkpt lat="44.08998" lon="3.51625">
        <ele>1312</ele>
        <time>2020-01-04T20:38:53Z</time>
      </trkpt>
      <trkpt lat="44.08964" lon="3.5167">
        <ele>1312</ele>
        <time>2020-01-04T20:39:04Z</time>
      </trkpt>
      <trkpt lat="44.08919" lon="3.51745">
        <ele>1304</ele>
        <time>2020-01-04T20:39:20Z</time>
      </trkpt>
      <trkpt lat="44.08906" lon="3.51794">
        <ele>1299</ele>
        <time>2020-01-04T20:39:29Z</time>
      </trkpt>
      <trkpt lat="44.08889" lon="3.51874">
        <ele>1293</ele>
        <time>2020-01-04T20:39:43Z</time>
      </trkpt>
      <trkpt lat="44.08871" lon="3.51938">
        <ele>1291</ele>
        <time>2020-01-04T20:39:55Z</time>
      </trkpt>
    </trkseg>
  </trk>
</gpx>